<?xml version="1.0" encoding="UTF-8" standalone="no" ?>
<gpx xmlns="http://www.topografix.com/GPX/1/1" xmlns:xsi="http://www.w3.org/2001/XMLSchema-instance" xsi:schemaLocation="http://www.topografix.com/GPX/1/1 http://www.topografix.com/GPX/1/1/gpx.xsd" version="1.1" creator="VisuGPX - https://www.visugpx.com">
  <metadata>
    <name>Sortie Moto</name>
  </metadata>
  <trk>
    <name><![CDATA[Journal actif: 2020-04-03 15:17]]></name>
    <trkseg>
      <trkpt lat="46.06809" lon="6.30818">
        <ele>541.84</ele>
        <time>2020-04-03T13:17:11Z</time>
      </trkpt>
      <trkpt lat="46.06812" lon="6.30873">
        <ele>538.96</ele>
        <time>2020-04-03T13:17:16Z</time>
      </trkpt>
      <trkpt lat="46.06812" lon="6.30888">
        <ele>538.48</ele>
        <time>2020-04-03T13:17:18Z</time>
      </trkpt>
      <trkpt lat="46.06812" lon="6.30905">
        <ele>538.48</ele>
        <time>2020-04-03T13:17:20Z</time>
      </trkpt>
      <trkpt lat="46.06814" lon="6.30929">
        <ele>538.48</ele>
        <time>2020-04-03T13:17:21Z</time>
      </trkpt>
      <trkpt lat="46.06811" lon="6.30936">
        <ele>537.99</ele>
        <time>2020-04-03T13:17:22Z</time>
      </trkpt>
      <trkpt lat="46.06808" lon="6.30946">
        <ele>537.99</ele>
        <time>2020-04-03T13:17:23Z</time>
      </trkpt>
      <trkpt lat="46.06804" lon="6.30956">
        <ele>537.51</ele>
        <time>2020-04-03T13:17:24Z</time>
      </trkpt>
      <trkpt lat="46.06801" lon="6.30966">
        <ele>537.51</ele>
        <time>2020-04-03T13:17:25Z</time>
      </trkpt>
      <trkpt lat="46.0678" lon="6.31033">
        <ele>534.15</ele>
        <time>2020-04-03T13:17:31Z</time>
      </trkpt>
      <trkpt lat="46.06759" lon="6.31106">
        <ele>527.9</ele>
        <time>2020-04-03T13:17:37Z</time>
      </trkpt>
      <trkpt lat="46.06741" lon="6.31169">
        <ele>525.5</ele>
        <time>2020-04-03T13:17:43Z</time>
      </trkpt>
      <trkpt lat="46.06739" lon="6.31177">
        <ele>525.5</ele>
        <time>2020-04-03T13:17:44Z</time>
      </trkpt>
      <trkpt lat="46.06734" lon="6.31189">
        <ele>525.5</ele>
        <time>2020-04-03T13:17:46Z</time>
      </trkpt>
      <trkpt lat="46.06726" lon="6.31204">
        <ele>525.5</ele>
        <time>2020-04-03T13:17:50Z</time>
      </trkpt>
      <trkpt lat="46.06725" lon="6.31206">
        <ele>525.5</ele>
        <time>2020-04-03T13:17:51Z</time>
      </trkpt>
      <trkpt lat="46.06723" lon="6.3121">
        <ele>525.5</ele>
        <time>2020-04-03T13:17:52Z</time>
      </trkpt>
      <trkpt lat="46.06722" lon="6.31213">
        <ele>525.5</ele>
        <time>2020-04-03T13:17:53Z</time>
      </trkpt>
      <trkpt lat="46.06722" lon="6.31214">
        <ele>525.5</ele>
        <time>2020-04-03T13:17:54Z</time>
      </trkpt>
      <trkpt lat="46.06724" lon="6.3123">
        <ele>525.5</ele>
        <time>2020-04-03T13:17:55Z</time>
      </trkpt>
      <trkpt lat="46.06718" lon="6.31253">
        <ele>525.5</ele>
        <time>2020-04-03T13:17:57Z</time>
      </trkpt>
      <trkpt lat="46.06718" lon="6.31258">
        <ele>525.5</ele>
        <time>2020-04-03T13:17:58Z</time>
      </trkpt>
      <trkpt lat="46.06728" lon="6.3127">
        <ele>525.98</ele>
        <time>2020-04-03T13:17:59Z</time>
      </trkpt>
      <trkpt lat="46.06728" lon="6.3127">
        <ele>525.98</ele>
        <time>2020-04-03T13:18:00Z</time>
      </trkpt>
      <trkpt lat="46.06731" lon="6.31276">
        <ele>525.98</ele>
        <time>2020-04-03T13:18:01Z</time>
      </trkpt>
      <trkpt lat="46.06734" lon="6.31284">
        <ele>525.98</ele>
        <time>2020-04-03T13:18:02Z</time>
      </trkpt>
      <trkpt lat="46.06737" lon="6.31293">
        <ele>525.98</ele>
        <time>2020-04-03T13:18:03Z</time>
      </trkpt>
      <trkpt lat="46.06741" lon="6.31304">
        <ele>525.98</ele>
        <time>2020-04-03T13:18:04Z</time>
      </trkpt>
      <trkpt lat="46.06745" lon="6.31316">
        <ele>525.98</ele>
        <time>2020-04-03T13:18:05Z</time>
      </trkpt>
      <trkpt lat="46.06748" lon="6.31329">
        <ele>525.98</ele>
        <time>2020-04-03T13:18:06Z</time>
      </trkpt>
      <trkpt lat="46.06752" lon="6.3138">
        <ele>525.98</ele>
        <time>2020-04-03T13:18:10Z</time>
      </trkpt>
      <trkpt lat="46.06756" lon="6.31391">
        <ele>525.98</ele>
        <time>2020-04-03T13:18:11Z</time>
      </trkpt>
      <trkpt lat="46.0676" lon="6.314">
        <ele>526.46</ele>
        <time>2020-04-03T13:18:12Z</time>
      </trkpt>
      <trkpt lat="46.06776" lon="6.31433">
        <ele>526.94</ele>
        <time>2020-04-03T13:18:18Z</time>
      </trkpt>
      <trkpt lat="46.06782" lon="6.31442">
        <ele>526.94</ele>
        <time>2020-04-03T13:18:19Z</time>
      </trkpt>
      <trkpt lat="46.06788" lon="6.31442">
        <ele>526.94</ele>
        <time>2020-04-03T13:18:20Z</time>
      </trkpt>
      <trkpt lat="46.06798" lon="6.31443">
        <ele>526.94</ele>
        <time>2020-04-03T13:18:21Z</time>
      </trkpt>
      <trkpt lat="46.06809" lon="6.31444">
        <ele>526.94</ele>
        <time>2020-04-03T13:18:22Z</time>
      </trkpt>
      <trkpt lat="46.06848" lon="6.31446">
        <ele>526.94</ele>
        <time>2020-04-03T13:18:25Z</time>
      </trkpt>
      <trkpt lat="46.06923" lon="6.31441">
        <ele>528.86</ele>
        <time>2020-04-03T13:18:31Z</time>
      </trkpt>
      <trkpt lat="46.06935" lon="6.31439">
        <ele>528.86</ele>
        <time>2020-04-03T13:18:32Z</time>
      </trkpt>
      <trkpt lat="46.06977" lon="6.31432">
        <ele>529.82</ele>
        <time>2020-04-03T13:18:36Z</time>
      </trkpt>
      <trkpt lat="46.06986" lon="6.31431">
        <ele>530.3</ele>
        <time>2020-04-03T13:18:37Z</time>
      </trkpt>
      <trkpt lat="46.07002" lon="6.31429">
        <ele>530.3</ele>
        <time>2020-04-03T13:18:39Z</time>
      </trkpt>
      <trkpt lat="46.07009" lon="6.31428">
        <ele>530.3</ele>
        <time>2020-04-03T13:18:40Z</time>
      </trkpt>
      <trkpt lat="46.07016" lon="6.31425">
        <ele>530.79</ele>
        <time>2020-04-03T13:18:41Z</time>
      </trkpt>
      <trkpt lat="46.07091" lon="6.31414">
        <ele>532.71</ele>
        <time>2020-04-03T13:18:48Z</time>
      </trkpt>
      <trkpt lat="46.07174" lon="6.31399">
        <ele>529.34</ele>
        <time>2020-04-03T13:18:55Z</time>
      </trkpt>
      <trkpt lat="46.07291" lon="6.31378">
        <ele>527.42</ele>
        <time>2020-04-03T13:19:05Z</time>
      </trkpt>
      <trkpt lat="46.07376" lon="6.31365">
        <ele>526.94</ele>
        <time>2020-04-03T13:19:13Z</time>
      </trkpt>
      <trkpt lat="46.07385" lon="6.31365">
        <ele>526.46</ele>
        <time>2020-04-03T13:19:14Z</time>
      </trkpt>
      <trkpt lat="46.074" lon="6.31394">
        <ele>525.98</ele>
        <time>2020-04-03T13:19:15Z</time>
      </trkpt>
      <trkpt lat="46.07409" lon="6.31401">
        <ele>525.02</ele>
        <time>2020-04-03T13:19:17Z</time>
      </trkpt>
      <trkpt lat="46.07433" lon="6.31402">
        <ele>524.54</ele>
        <time>2020-04-03T13:19:19Z</time>
      </trkpt>
      <trkpt lat="46.07438" lon="6.31412">
        <ele>524.06</ele>
        <time>2020-04-03T13:19:20Z</time>
      </trkpt>
      <trkpt lat="46.07443" lon="6.31423">
        <ele>523.58</ele>
        <time>2020-04-03T13:19:21Z</time>
      </trkpt>
      <trkpt lat="46.07447" lon="6.31432">
        <ele>523.58</ele>
        <time>2020-04-03T13:19:22Z</time>
      </trkpt>
      <trkpt lat="46.0745" lon="6.31442">
        <ele>523.09</ele>
        <time>2020-04-03T13:19:23Z</time>
      </trkpt>
      <trkpt lat="46.07451" lon="6.31451">
        <ele>523.09</ele>
        <time>2020-04-03T13:19:24Z</time>
      </trkpt>
      <trkpt lat="46.07449" lon="6.3146">
        <ele>522.61</ele>
        <time>2020-04-03T13:19:25Z</time>
      </trkpt>
      <trkpt lat="46.07445" lon="6.31466">
        <ele>522.61</ele>
        <time>2020-04-03T13:19:26Z</time>
      </trkpt>
      <trkpt lat="46.07442" lon="6.31472">
        <ele>522.13</ele>
        <time>2020-04-03T13:19:27Z</time>
      </trkpt>
      <trkpt lat="46.07438" lon="6.31478">
        <ele>522.13</ele>
        <time>2020-04-03T13:19:28Z</time>
      </trkpt>
      <trkpt lat="46.07431" lon="6.31471">
        <ele>521.65</ele>
        <time>2020-04-03T13:19:29Z</time>
      </trkpt>
      <trkpt lat="46.07429" lon="6.31467">
        <ele>521.65</ele>
        <time>2020-04-03T13:19:30Z</time>
      </trkpt>
      <trkpt lat="46.07428" lon="6.31465">
        <ele>521.65</ele>
        <time>2020-04-03T13:19:38Z</time>
      </trkpt>
      <trkpt lat="46.07421" lon="6.31473">
        <ele>528.86</ele>
        <time>2020-04-03T13:21:50Z</time>
      </trkpt>
      <trkpt lat="46.07428" lon="6.31465">
        <ele>529.82</ele>
        <time>2020-04-03T13:21:52Z</time>
      </trkpt>
      <trkpt lat="46.07436" lon="6.31482">
        <ele>528.38</ele>
        <time>2020-04-03T13:21:53Z</time>
      </trkpt>
      <trkpt lat="46.07452" lon="6.31456">
        <ele>526.94</ele>
        <time>2020-04-03T13:21:54Z</time>
      </trkpt>
      <trkpt lat="46.07435" lon="6.31477">
        <ele>526.46</ele>
        <time>2020-04-03T13:21:55Z</time>
      </trkpt>
      <trkpt lat="46.07452" lon="6.31456">
        <ele>525.98</ele>
        <time>2020-04-03T13:21:56Z</time>
      </trkpt>
      <trkpt lat="46.07448" lon="6.31462">
        <ele>525.02</ele>
        <time>2020-04-03T13:21:57Z</time>
      </trkpt>
      <trkpt lat="46.07452" lon="6.31456">
        <ele>525.02</ele>
        <time>2020-04-03T13:21:58Z</time>
      </trkpt>
      <trkpt lat="46.07449" lon="6.31437">
        <ele>525.02</ele>
        <time>2020-04-03T13:21:59Z</time>
      </trkpt>
      <trkpt lat="46.07443" lon="6.31423">
        <ele>525.5</ele>
        <time>2020-04-03T13:22:00Z</time>
      </trkpt>
      <trkpt lat="46.07439" lon="6.31414">
        <ele>525.98</ele>
        <time>2020-04-03T13:22:01Z</time>
      </trkpt>
      <trkpt lat="46.07443" lon="6.31379">
        <ele>525.02</ele>
        <time>2020-04-03T13:22:02Z</time>
      </trkpt>
      <trkpt lat="46.07443" lon="6.3136">
        <ele>525.5</ele>
        <time>2020-04-03T13:22:03Z</time>
      </trkpt>
      <trkpt lat="46.07432" lon="6.31338">
        <ele>525.98</ele>
        <time>2020-04-03T13:22:05Z</time>
      </trkpt>
      <trkpt lat="46.07432" lon="6.31338">
        <ele>525.98</ele>
        <time>2020-04-03T13:22:06Z</time>
      </trkpt>
      <trkpt lat="46.07407" lon="6.31334">
        <ele>526.94</ele>
        <time>2020-04-03T13:22:08Z</time>
      </trkpt>
      <trkpt lat="46.074" lon="6.31344">
        <ele>526.46</ele>
        <time>2020-04-03T13:22:09Z</time>
      </trkpt>
      <trkpt lat="46.074" lon="6.31344">
        <ele>526.46</ele>
        <time>2020-04-03T13:22:10Z</time>
      </trkpt>
      <trkpt lat="46.07394" lon="6.31364">
        <ele>526.46</ele>
        <time>2020-04-03T13:22:11Z</time>
      </trkpt>
      <trkpt lat="46.07395" lon="6.31371">
        <ele>525.98</ele>
        <time>2020-04-03T13:22:12Z</time>
      </trkpt>
      <trkpt lat="46.07398" lon="6.31384">
        <ele>525.98</ele>
        <time>2020-04-03T13:22:13Z</time>
      </trkpt>
      <trkpt lat="46.07393" lon="6.31413">
        <ele>525.5</ele>
        <time>2020-04-03T13:22:14Z</time>
      </trkpt>
      <trkpt lat="46.07388" lon="6.31427">
        <ele>525.02</ele>
        <time>2020-04-03T13:22:15Z</time>
      </trkpt>
      <trkpt lat="46.07383" lon="6.31442">
        <ele>524.06</ele>
        <time>2020-04-03T13:22:16Z</time>
      </trkpt>
      <trkpt lat="46.07373" lon="6.3146">
        <ele>523.58</ele>
        <time>2020-04-03T13:22:17Z</time>
      </trkpt>
      <trkpt lat="46.07373" lon="6.3146">
        <ele>523.58</ele>
        <time>2020-04-03T13:22:18Z</time>
      </trkpt>
      <trkpt lat="46.0726" lon="6.31607">
        <ele>520.21</ele>
        <time>2020-04-03T13:22:26Z</time>
      </trkpt>
      <trkpt lat="46.07136" lon="6.31797">
        <ele>518.77</ele>
        <time>2020-04-03T13:22:38Z</time>
      </trkpt>
      <trkpt lat="46.07059" lon="6.31974">
        <ele>518.29</ele>
        <time>2020-04-03T13:22:48Z</time>
      </trkpt>
      <trkpt lat="46.07026" lon="6.32133">
        <ele>517.33</ele>
        <time>2020-04-03T13:22:55Z</time>
      </trkpt>
      <trkpt lat="46.07046" lon="6.323">
        <ele>514.44</ele>
        <time>2020-04-03T13:23:02Z</time>
      </trkpt>
      <trkpt lat="46.07097" lon="6.32541">
        <ele>503.87</ele>
        <time>2020-04-03T13:23:13Z</time>
      </trkpt>
      <trkpt lat="46.07112" lon="6.32696">
        <ele>497.62</ele>
        <time>2020-04-03T13:23:21Z</time>
      </trkpt>
      <trkpt lat="46.07114" lon="6.32727">
        <ele>496.18</ele>
        <time>2020-04-03T13:23:23Z</time>
      </trkpt>
      <trkpt lat="46.07114" lon="6.32741">
        <ele>495.7</ele>
        <time>2020-04-03T13:23:24Z</time>
      </trkpt>
      <trkpt lat="46.07108" lon="6.32753">
        <ele>495.22</ele>
        <time>2020-04-03T13:23:25Z</time>
      </trkpt>
      <trkpt lat="46.07108" lon="6.32763">
        <ele>494.74</ele>
        <time>2020-04-03T13:23:26Z</time>
      </trkpt>
      <trkpt lat="46.07111" lon="6.32771">
        <ele>494.26</ele>
        <time>2020-04-03T13:23:27Z</time>
      </trkpt>
      <trkpt lat="46.07115" lon="6.3278">
        <ele>493.29</ele>
        <time>2020-04-03T13:23:28Z</time>
      </trkpt>
      <trkpt lat="46.0712" lon="6.32782">
        <ele>493.29</ele>
        <time>2020-04-03T13:23:29Z</time>
      </trkpt>
      <trkpt lat="46.07127" lon="6.32781">
        <ele>492.81</ele>
        <time>2020-04-03T13:23:30Z</time>
      </trkpt>
      <trkpt lat="46.07136" lon="6.32773">
        <ele>492.33</ele>
        <time>2020-04-03T13:23:31Z</time>
      </trkpt>
      <trkpt lat="46.07136" lon="6.32764">
        <ele>491.85</ele>
        <time>2020-04-03T13:23:32Z</time>
      </trkpt>
      <trkpt lat="46.07136" lon="6.32755">
        <ele>491.85</ele>
        <time>2020-04-03T13:23:33Z</time>
      </trkpt>
      <trkpt lat="46.07125" lon="6.32742">
        <ele>492.33</ele>
        <time>2020-04-03T13:23:34Z</time>
      </trkpt>
      <trkpt lat="46.07124" lon="6.32731">
        <ele>492.81</ele>
        <time>2020-04-03T13:23:35Z</time>
      </trkpt>
      <trkpt lat="46.07122" lon="6.32716">
        <ele>493.29</ele>
        <time>2020-04-03T13:23:36Z</time>
      </trkpt>
      <trkpt lat="46.07102" lon="6.32527">
        <ele>501.95</ele>
        <time>2020-04-03T13:23:48Z</time>
      </trkpt>
      <trkpt lat="46.07058" lon="6.32345">
        <ele>511.08</ele>
        <time>2020-04-03T13:23:59Z</time>
      </trkpt>
      <trkpt lat="46.07027" lon="6.322">
        <ele>515.88</ele>
        <time>2020-04-03T13:24:08Z</time>
      </trkpt>
      <trkpt lat="46.07025" lon="6.32164">
        <ele>516.85</ele>
        <time>2020-04-03T13:24:11Z</time>
      </trkpt>
      <trkpt lat="46.07026" lon="6.32147">
        <ele>517.33</ele>
        <time>2020-04-03T13:24:13Z</time>
      </trkpt>
      <trkpt lat="46.07027" lon="6.32123">
        <ele>517.81</ele>
        <time>2020-04-03T13:24:16Z</time>
      </trkpt>
      <trkpt lat="46.07027" lon="6.32117">
        <ele>517.81</ele>
        <time>2020-04-03T13:24:17Z</time>
      </trkpt>
      <trkpt lat="46.07027" lon="6.32111">
        <ele>517.81</ele>
        <time>2020-04-03T13:24:18Z</time>
      </trkpt>
      <trkpt lat="46.07021" lon="6.32101">
        <ele>517.81</ele>
        <time>2020-04-03T13:24:19Z</time>
      </trkpt>
      <trkpt lat="46.07017" lon="6.32099">
        <ele>518.29</ele>
        <time>2020-04-03T13:24:20Z</time>
      </trkpt>
      <trkpt lat="46.07012" lon="6.32098">
        <ele>518.29</ele>
        <time>2020-04-03T13:24:21Z</time>
      </trkpt>
      <trkpt lat="46.07005" lon="6.32096">
        <ele>518.77</ele>
        <time>2020-04-03T13:24:22Z</time>
      </trkpt>
      <trkpt lat="46.06999" lon="6.32094">
        <ele>518.77</ele>
        <time>2020-04-03T13:24:23Z</time>
      </trkpt>
      <trkpt lat="46.06993" lon="6.32092">
        <ele>518.77</ele>
        <time>2020-04-03T13:24:24Z</time>
      </trkpt>
      <trkpt lat="46.06981" lon="6.32085">
        <ele>519.25</ele>
        <time>2020-04-03T13:24:25Z</time>
      </trkpt>
      <trkpt lat="46.06981" lon="6.32085">
        <ele>519.25</ele>
        <time>2020-04-03T13:24:26Z</time>
      </trkpt>
      <trkpt lat="46.06979" lon="6.32078">
        <ele>519.73</ele>
        <time>2020-04-03T13:24:27Z</time>
      </trkpt>
      <trkpt lat="46.06976" lon="6.3207">
        <ele>519.73</ele>
        <time>2020-04-03T13:24:28Z</time>
      </trkpt>
      <trkpt lat="46.06952" lon="6.31986">
        <ele>521.17</ele>
        <time>2020-04-03T13:24:37Z</time>
      </trkpt>
      <trkpt lat="46.06948" lon="6.31974">
        <ele>521.17</ele>
        <time>2020-04-03T13:24:40Z</time>
      </trkpt>
      <trkpt lat="46.06965" lon="6.3196">
        <ele>521.65</ele>
        <time>2020-04-03T13:24:47Z</time>
      </trkpt>
      <trkpt lat="46.06989" lon="6.31946">
        <ele>522.13</ele>
        <time>2020-04-03T13:24:51Z</time>
      </trkpt>
      <trkpt lat="46.06997" lon="6.31938">
        <ele>522.61</ele>
        <time>2020-04-03T13:24:54Z</time>
      </trkpt>
      <trkpt lat="46.06983" lon="6.31919">
        <ele>522.61</ele>
        <time>2020-04-03T13:25:02Z</time>
      </trkpt>
      <trkpt lat="46.0698" lon="6.31921">
        <ele>522.61</ele>
        <time>2020-04-03T13:25:03Z</time>
      </trkpt>
      <trkpt lat="46.06953" lon="6.31938">
        <ele>522.13</ele>
        <time>2020-04-03T13:25:13Z</time>
      </trkpt>
      <trkpt lat="46.0694" lon="6.31949">
        <ele>522.61</ele>
        <time>2020-04-03T13:25:15Z</time>
      </trkpt>
      <trkpt lat="46.06941" lon="6.31952">
        <ele>522.13</ele>
        <time>2020-04-03T13:25:16Z</time>
      </trkpt>
      <trkpt lat="46.06942" lon="6.31955">
        <ele>522.13</ele>
        <time>2020-04-03T13:25:17Z</time>
      </trkpt>
      <trkpt lat="46.06943" lon="6.31958">
        <ele>521.65</ele>
        <time>2020-04-03T13:25:18Z</time>
      </trkpt>
      <trkpt lat="46.06944" lon="6.31961">
        <ele>522.13</ele>
        <time>2020-04-03T13:25:19Z</time>
      </trkpt>
      <trkpt lat="46.06945" lon="6.31963">
        <ele>522.13</ele>
        <time>2020-04-03T13:25:20Z</time>
      </trkpt>
      <trkpt lat="46.06949" lon="6.3196">
        <ele>522.61</ele>
        <time>2020-04-03T13:25:29Z</time>
      </trkpt>
      <trkpt lat="46.06943" lon="6.31959">
        <ele>523.09</ele>
        <time>2020-04-03T13:25:32Z</time>
      </trkpt>
      <trkpt lat="46.06928" lon="6.31913">
        <ele>524.54</ele>
        <time>2020-04-03T13:25:37Z</time>
      </trkpt>
      <trkpt lat="46.06898" lon="6.31813">
        <ele>527.42</ele>
        <time>2020-04-03T13:25:47Z</time>
      </trkpt>
      <trkpt lat="46.06841" lon="6.31628">
        <ele>535.11</ele>
        <time>2020-04-03T13:26:02Z</time>
      </trkpt>
      <trkpt lat="46.06797" lon="6.31495">
        <ele>538.96</ele>
        <time>2020-04-03T13:26:12Z</time>
      </trkpt>
      <trkpt lat="46.06791" lon="6.31474">
        <ele>539.92</ele>
        <time>2020-04-03T13:26:14Z</time>
      </trkpt>
      <trkpt lat="46.06788" lon="6.31467">
        <ele>539.92</ele>
        <time>2020-04-03T13:26:15Z</time>
      </trkpt>
      <trkpt lat="46.06787" lon="6.31463">
        <ele>539.92</ele>
        <time>2020-04-03T13:26:16Z</time>
      </trkpt>
      <trkpt lat="46.06793" lon="6.31443">
        <ele>540.4</ele>
        <time>2020-04-03T13:26:17Z</time>
      </trkpt>
      <trkpt lat="46.06797" lon="6.31443">
        <ele>540.88</ele>
        <time>2020-04-03T13:26:18Z</time>
      </trkpt>
      <trkpt lat="46.06806" lon="6.31444">
        <ele>541.36</ele>
        <time>2020-04-03T13:26:19Z</time>
      </trkpt>
      <trkpt lat="46.06809" lon="6.31444">
        <ele>541.84</ele>
        <time>2020-04-03T13:26:20Z</time>
      </trkpt>
      <trkpt lat="46.06819" lon="6.31444">
        <ele>542.32</ele>
        <time>2020-04-03T13:26:21Z</time>
      </trkpt>
      <trkpt lat="46.06831" lon="6.31445">
        <ele>542.32</ele>
        <time>2020-04-03T13:26:22Z</time>
      </trkpt>
      <trkpt lat="46.06856" lon="6.31447">
        <ele>542.8</ele>
        <time>2020-04-03T13:26:24Z</time>
      </trkpt>
      <trkpt lat="46.06969" lon="6.31434">
        <ele>539.92</ele>
        <time>2020-04-03T13:26:33Z</time>
      </trkpt>
      <trkpt lat="46.07024" lon="6.31424">
        <ele>537.51</ele>
        <time>2020-04-03T13:26:39Z</time>
      </trkpt>
      <trkpt lat="46.07138" lon="6.31405">
        <ele>533.19</ele>
        <time>2020-04-03T13:26:48Z</time>
      </trkpt>
      <trkpt lat="46.07298" lon="6.31377">
        <ele>528.86</ele>
        <time>2020-04-03T13:27:00Z</time>
      </trkpt>
      <trkpt lat="46.07369" lon="6.31366">
        <ele>527.42</ele>
        <time>2020-04-03T13:27:06Z</time>
      </trkpt>
      <trkpt lat="46.07379" lon="6.31365">
        <ele>527.42</ele>
        <time>2020-04-03T13:27:07Z</time>
      </trkpt>
      <trkpt lat="46.07387" lon="6.31365">
        <ele>526.94</ele>
        <time>2020-04-03T13:27:08Z</time>
      </trkpt>
      <trkpt lat="46.07387" lon="6.31365">
        <ele>525.98</ele>
        <time>2020-04-03T13:27:09Z</time>
      </trkpt>
      <trkpt lat="46.07402" lon="6.31395">
        <ele>525.98</ele>
        <time>2020-04-03T13:27:10Z</time>
      </trkpt>
      <trkpt lat="46.07402" lon="6.31395">
        <ele>525.5</ele>
        <time>2020-04-03T13:27:11Z</time>
      </trkpt>
      <trkpt lat="46.07409" lon="6.31401">
        <ele>525.02</ele>
        <time>2020-04-03T13:27:12Z</time>
      </trkpt>
      <trkpt lat="46.0742" lon="6.31404">
        <ele>524.06</ele>
        <time>2020-04-03T13:27:13Z</time>
      </trkpt>
      <trkpt lat="46.07438" lon="6.3139">
        <ele>523.58</ele>
        <time>2020-04-03T13:27:14Z</time>
      </trkpt>
      <trkpt lat="46.07443" lon="6.31379">
        <ele>523.58</ele>
        <time>2020-04-03T13:27:15Z</time>
      </trkpt>
      <trkpt lat="46.07452" lon="6.31363">
        <ele>523.58</ele>
        <time>2020-04-03T13:27:16Z</time>
      </trkpt>
      <trkpt lat="46.07463" lon="6.31356">
        <ele>523.09</ele>
        <time>2020-04-03T13:27:17Z</time>
      </trkpt>
      <trkpt lat="46.07476" lon="6.3135">
        <ele>522.61</ele>
        <time>2020-04-03T13:27:18Z</time>
      </trkpt>
      <trkpt lat="46.0749" lon="6.31347">
        <ele>522.13</ele>
        <time>2020-04-03T13:27:19Z</time>
      </trkpt>
      <trkpt lat="46.07506" lon="6.31344">
        <ele>521.65</ele>
        <time>2020-04-03T13:27:20Z</time>
      </trkpt>
      <trkpt lat="46.07684" lon="6.31315">
        <ele>514.92</ele>
        <time>2020-04-03T13:27:31Z</time>
      </trkpt>
      <trkpt lat="46.07811" lon="6.31311">
        <ele>506.75</ele>
        <time>2020-04-03T13:27:37Z</time>
      </trkpt>
      <trkpt lat="46.08083" lon="6.31304">
        <ele>494.26</ele>
        <time>2020-04-03T13:27:50Z</time>
      </trkpt>
      <trkpt lat="46.08371" lon="6.31298">
        <ele>487.05</ele>
        <time>2020-04-03T13:28:04Z</time>
      </trkpt>
      <trkpt lat="46.08642" lon="6.31289">
        <ele>483.68</ele>
        <time>2020-04-03T13:28:18Z</time>
      </trkpt>
      <trkpt lat="46.08829" lon="6.31311">
        <ele>480.32</ele>
        <time>2020-04-03T13:28:27Z</time>
      </trkpt>
      <trkpt lat="46.09158" lon="6.31363">
        <ele>475.99</ele>
        <time>2020-04-03T13:28:43Z</time>
      </trkpt>
      <trkpt lat="46.09447" lon="6.31367">
        <ele>477.91</ele>
        <time>2020-04-03T13:28:57Z</time>
      </trkpt>
      <trkpt lat="46.09704" lon="6.31368">
        <ele>475.03</ele>
        <time>2020-04-03T13:29:09Z</time>
      </trkpt>
      <trkpt lat="46.10027" lon="6.31367">
        <ele>474.55</ele>
        <time>2020-04-03T13:29:23Z</time>
      </trkpt>
      <trkpt lat="46.10373" lon="6.31367">
        <ele>475.03</ele>
        <time>2020-04-03T13:29:38Z</time>
      </trkpt>
      <trkpt lat="46.10634" lon="6.31366">
        <ele>474.55</ele>
        <time>2020-04-03T13:29:50Z</time>
      </trkpt>
      <trkpt lat="46.10919" lon="6.31366">
        <ele>477.43</ele>
        <time>2020-04-03T13:30:03Z</time>
      </trkpt>
      <trkpt lat="46.11248" lon="6.31367">
        <ele>475.03</ele>
        <time>2020-04-03T13:30:18Z</time>
      </trkpt>
      <trkpt lat="46.11591" lon="6.31368">
        <ele>469.26</ele>
        <time>2020-04-03T13:30:34Z</time>
      </trkpt>
      <trkpt lat="46.1195" lon="6.31371">
        <ele>463.97</ele>
        <time>2020-04-03T13:30:50Z</time>
      </trkpt>
      <trkpt lat="46.12073" lon="6.31371">
        <ele>462.53</ele>
        <time>2020-04-03T13:30:58Z</time>
      </trkpt>
      <trkpt lat="46.1211" lon="6.31372">
        <ele>462.53</ele>
        <time>2020-04-03T13:31:01Z</time>
      </trkpt>
      <trkpt lat="46.1212" lon="6.31372">
        <ele>462.05</ele>
        <time>2020-04-03T13:31:02Z</time>
      </trkpt>
      <trkpt lat="46.1213" lon="6.31373">
        <ele>462.05</ele>
        <time>2020-04-03T13:31:03Z</time>
      </trkpt>
      <trkpt lat="46.12136" lon="6.31373">
        <ele>462.05</ele>
        <time>2020-04-03T13:31:04Z</time>
      </trkpt>
      <trkpt lat="46.12148" lon="6.31387">
        <ele>462.05</ele>
        <time>2020-04-03T13:31:05Z</time>
      </trkpt>
      <trkpt lat="46.12156" lon="6.31382">
        <ele>462.05</ele>
        <time>2020-04-03T13:31:06Z</time>
      </trkpt>
      <trkpt lat="46.12167" lon="6.31371">
        <ele>462.05</ele>
        <time>2020-04-03T13:31:07Z</time>
      </trkpt>
      <trkpt lat="46.12179" lon="6.31372">
        <ele>462.05</ele>
        <time>2020-04-03T13:31:08Z</time>
      </trkpt>
      <trkpt lat="46.12193" lon="6.31373">
        <ele>462.05</ele>
        <time>2020-04-03T13:31:09Z</time>
      </trkpt>
      <trkpt lat="46.12337" lon="6.31376">
        <ele>460.61</ele>
        <time>2020-04-03T13:31:17Z</time>
      </trkpt>
      <trkpt lat="46.12588" lon="6.31359">
        <ele>454.36</ele>
        <time>2020-04-03T13:31:29Z</time>
      </trkpt>
      <trkpt lat="46.12856" lon="6.31316">
        <ele>448.11</ele>
        <time>2020-04-03T13:31:41Z</time>
      </trkpt>
      <trkpt lat="46.13171" lon="6.31268">
        <ele>445.71</ele>
        <time>2020-04-03T13:31:55Z</time>
      </trkpt>
      <trkpt lat="46.13298" lon="6.31272">
        <ele>442.34</ele>
        <time>2020-04-03T13:32:02Z</time>
      </trkpt>
      <trkpt lat="46.13316" lon="6.31273">
        <ele>441.38</ele>
        <time>2020-04-03T13:32:03Z</time>
      </trkpt>
      <trkpt lat="46.135" lon="6.31195">
        <ele>438.02</ele>
        <time>2020-04-03T13:32:12Z</time>
      </trkpt>
      <trkpt lat="46.135" lon="6.31195">
        <ele>438.02</ele>
        <time>2020-04-03T13:32:13Z</time>
      </trkpt>
      <trkpt lat="46.13516" lon="6.31189">
        <ele>438.5</ele>
        <time>2020-04-03T13:32:14Z</time>
      </trkpt>
      <trkpt lat="46.13533" lon="6.31188">
        <ele>438.98</ele>
        <time>2020-04-03T13:32:15Z</time>
      </trkpt>
      <trkpt lat="46.13566" lon="6.31205">
        <ele>439.46</ele>
        <time>2020-04-03T13:32:16Z</time>
      </trkpt>
      <trkpt lat="46.13566" lon="6.31205">
        <ele>440.42</ele>
        <time>2020-04-03T13:32:17Z</time>
      </trkpt>
      <trkpt lat="46.13596" lon="6.31235">
        <ele>441.38</ele>
        <time>2020-04-03T13:32:18Z</time>
      </trkpt>
      <trkpt lat="46.13765" lon="6.31426">
        <ele>450.03</ele>
        <time>2020-04-03T13:32:30Z</time>
      </trkpt>
      <trkpt lat="46.13935" lon="6.3153">
        <ele>455.32</ele>
        <time>2020-04-03T13:32:39Z</time>
      </trkpt>
      <trkpt lat="46.1396" lon="6.31544">
        <ele>455.8</ele>
        <time>2020-04-03T13:32:42Z</time>
      </trkpt>
      <trkpt lat="46.1406" lon="6.31604">
        <ele>456.76</ele>
        <time>2020-04-03T13:32:49Z</time>
      </trkpt>
      <trkpt lat="46.14273" lon="6.31726">
        <ele>457.72</ele>
        <time>2020-04-03T13:33:01Z</time>
      </trkpt>
      <trkpt lat="46.14334" lon="6.31756">
        <ele>458.69</ele>
        <time>2020-04-03T13:33:04Z</time>
      </trkpt>
      <trkpt lat="46.14355" lon="6.31761">
        <ele>459.65</ele>
        <time>2020-04-03T13:33:05Z</time>
      </trkpt>
      <trkpt lat="46.144" lon="6.31773">
        <ele>460.13</ele>
        <time>2020-04-03T13:33:06Z</time>
      </trkpt>
      <trkpt lat="46.144" lon="6.31773">
        <ele>461.57</ele>
        <time>2020-04-03T13:33:07Z</time>
      </trkpt>
      <trkpt lat="46.14423" lon="6.31771">
        <ele>462.53</ele>
        <time>2020-04-03T13:33:08Z</time>
      </trkpt>
      <trkpt lat="46.14446" lon="6.31766">
        <ele>463.97</ele>
        <time>2020-04-03T13:33:09Z</time>
      </trkpt>
      <trkpt lat="46.14611" lon="6.31729">
        <ele>471.18</ele>
        <time>2020-04-03T13:33:15Z</time>
      </trkpt>
      <trkpt lat="46.14635" lon="6.31733">
        <ele>472.63</ele>
        <time>2020-04-03T13:33:16Z</time>
      </trkpt>
      <trkpt lat="46.14659" lon="6.31738">
        <ele>474.07</ele>
        <time>2020-04-03T13:33:17Z</time>
      </trkpt>
      <trkpt lat="46.14682" lon="6.31746">
        <ele>475.51</ele>
        <time>2020-04-03T13:33:18Z</time>
      </trkpt>
      <trkpt lat="46.14704" lon="6.31757">
        <ele>476.95</ele>
        <time>2020-04-03T13:33:19Z</time>
      </trkpt>
      <trkpt lat="46.14726" lon="6.31769">
        <ele>478.39</ele>
        <time>2020-04-03T13:33:20Z</time>
      </trkpt>
      <trkpt lat="46.14852" lon="6.31844">
        <ele>483.68</ele>
        <time>2020-04-03T13:33:27Z</time>
      </trkpt>
      <trkpt lat="46.14896" lon="6.31877">
        <ele>484.16</ele>
        <time>2020-04-03T13:33:30Z</time>
      </trkpt>
      <trkpt lat="46.14907" lon="6.31893">
        <ele>484.64</ele>
        <time>2020-04-03T13:33:31Z</time>
      </trkpt>
      <trkpt lat="46.14919" lon="6.31906">
        <ele>484.64</ele>
        <time>2020-04-03T13:33:32Z</time>
      </trkpt>
      <trkpt lat="46.14928" lon="6.31921">
        <ele>484.64</ele>
        <time>2020-04-03T13:33:33Z</time>
      </trkpt>
      <trkpt lat="46.14936" lon="6.31936">
        <ele>484.64</ele>
        <time>2020-04-03T13:33:34Z</time>
      </trkpt>
      <trkpt lat="46.14936" lon="6.31936">
        <ele>485.12</ele>
        <time>2020-04-03T13:33:35Z</time>
      </trkpt>
      <trkpt lat="46.14946" lon="6.31972">
        <ele>485.12</ele>
        <time>2020-04-03T13:33:36Z</time>
      </trkpt>
      <trkpt lat="46.14949" lon="6.31991">
        <ele>485.6</ele>
        <time>2020-04-03T13:33:37Z</time>
      </trkpt>
      <trkpt lat="46.14952" lon="6.32008">
        <ele>486.08</ele>
        <time>2020-04-03T13:33:38Z</time>
      </trkpt>
      <trkpt lat="46.14953" lon="6.32024">
        <ele>486.08</ele>
        <time>2020-04-03T13:33:39Z</time>
      </trkpt>
      <trkpt lat="46.14952" lon="6.3204">
        <ele>486.08</ele>
        <time>2020-04-03T13:33:40Z</time>
      </trkpt>
      <trkpt lat="46.14952" lon="6.32055">
        <ele>486.56</ele>
        <time>2020-04-03T13:33:41Z</time>
      </trkpt>
      <trkpt lat="46.14945" lon="6.32077">
        <ele>486.56</ele>
        <time>2020-04-03T13:33:42Z</time>
      </trkpt>
      <trkpt lat="46.14943" lon="6.32084">
        <ele>486.56</ele>
        <time>2020-04-03T13:33:43Z</time>
      </trkpt>
      <trkpt lat="46.14946" lon="6.321">
        <ele>486.56</ele>
        <time>2020-04-03T13:33:44Z</time>
      </trkpt>
      <trkpt lat="46.14957" lon="6.32137">
        <ele>487.05</ele>
        <time>2020-04-03T13:33:46Z</time>
      </trkpt>
      <trkpt lat="46.14957" lon="6.32159">
        <ele>487.05</ele>
        <time>2020-04-03T13:33:47Z</time>
      </trkpt>
      <trkpt lat="46.1496" lon="6.32347">
        <ele>488.97</ele>
        <time>2020-04-03T13:33:54Z</time>
      </trkpt>
      <trkpt lat="46.14966" lon="6.32373">
        <ele>489.45</ele>
        <time>2020-04-03T13:33:55Z</time>
      </trkpt>
      <trkpt lat="46.14973" lon="6.324">
        <ele>489.93</ele>
        <time>2020-04-03T13:33:56Z</time>
      </trkpt>
      <trkpt lat="46.15016" lon="6.32592">
        <ele>493.77</ele>
        <time>2020-04-03T13:34:03Z</time>
      </trkpt>
      <trkpt lat="46.15022" lon="6.32624">
        <ele>494.74</ele>
        <time>2020-04-03T13:34:04Z</time>
      </trkpt>
      <trkpt lat="46.1502" lon="6.32651">
        <ele>495.7</ele>
        <time>2020-04-03T13:34:05Z</time>
      </trkpt>
      <trkpt lat="46.15018" lon="6.32679">
        <ele>496.66</ele>
        <time>2020-04-03T13:34:06Z</time>
      </trkpt>
      <trkpt lat="46.15014" lon="6.32707">
        <ele>498.1</ele>
        <time>2020-04-03T13:34:07Z</time>
      </trkpt>
      <trkpt lat="46.15011" lon="6.32734">
        <ele>499.06</ele>
        <time>2020-04-03T13:34:08Z</time>
      </trkpt>
      <trkpt lat="46.14999" lon="6.32808">
        <ele>504.83</ele>
        <time>2020-04-03T13:34:12Z</time>
      </trkpt>
      <trkpt lat="46.14997" lon="6.3285">
        <ele>506.27</ele>
        <time>2020-04-03T13:34:13Z</time>
      </trkpt>
      <trkpt lat="46.14997" lon="6.3285">
        <ele>507.23</ele>
        <time>2020-04-03T13:34:14Z</time>
      </trkpt>
      <trkpt lat="46.14997" lon="6.32886">
        <ele>508.67</ele>
        <time>2020-04-03T13:34:15Z</time>
      </trkpt>
      <trkpt lat="46.15" lon="6.32902">
        <ele>510.12</ele>
        <time>2020-04-03T13:34:16Z</time>
      </trkpt>
      <trkpt lat="46.15" lon="6.32902">
        <ele>511.08</ele>
        <time>2020-04-03T13:34:17Z</time>
      </trkpt>
      <trkpt lat="46.15003" lon="6.32918">
        <ele>512.04</ele>
        <time>2020-04-03T13:34:18Z</time>
      </trkpt>
      <trkpt lat="46.15013" lon="6.32946">
        <ele>513</ele>
        <time>2020-04-03T13:34:19Z</time>
      </trkpt>
      <trkpt lat="46.15013" lon="6.32946">
        <ele>513.96</ele>
        <time>2020-04-03T13:34:20Z</time>
      </trkpt>
      <trkpt lat="46.15089" lon="6.3309">
        <ele>523.09</ele>
        <time>2020-04-03T13:34:30Z</time>
      </trkpt>
      <trkpt lat="46.15165" lon="6.33192">
        <ele>532.23</ele>
        <time>2020-04-03T13:34:39Z</time>
      </trkpt>
      <trkpt lat="46.15196" lon="6.33229">
        <ele>535.59</ele>
        <time>2020-04-03T13:34:43Z</time>
      </trkpt>
      <trkpt lat="46.15204" lon="6.33243">
        <ele>536.07</ele>
        <time>2020-04-03T13:34:44Z</time>
      </trkpt>
      <trkpt lat="46.15212" lon="6.33259">
        <ele>537.03</ele>
        <time>2020-04-03T13:34:45Z</time>
      </trkpt>
      <trkpt lat="46.15221" lon="6.33276">
        <ele>537.51</ele>
        <time>2020-04-03T13:34:46Z</time>
      </trkpt>
      <trkpt lat="46.15226" lon="6.33298">
        <ele>537.99</ele>
        <time>2020-04-03T13:34:47Z</time>
      </trkpt>
      <trkpt lat="46.1523" lon="6.33322">
        <ele>537.99</ele>
        <time>2020-04-03T13:34:48Z</time>
      </trkpt>
      <trkpt lat="46.1523" lon="6.33347">
        <ele>537.99</ele>
        <time>2020-04-03T13:34:49Z</time>
      </trkpt>
      <trkpt lat="46.15224" lon="6.33374">
        <ele>537.99</ele>
        <time>2020-04-03T13:34:50Z</time>
      </trkpt>
      <trkpt lat="46.15217" lon="6.33399">
        <ele>537.99</ele>
        <time>2020-04-03T13:34:51Z</time>
      </trkpt>
      <trkpt lat="46.15183" lon="6.33499">
        <ele>538.96</ele>
        <time>2020-04-03T13:34:56Z</time>
      </trkpt>
      <trkpt lat="46.1518" lon="6.33518">
        <ele>539.44</ele>
        <time>2020-04-03T13:34:57Z</time>
      </trkpt>
      <trkpt lat="46.15178" lon="6.33537">
        <ele>539.92</ele>
        <time>2020-04-03T13:34:58Z</time>
      </trkpt>
      <trkpt lat="46.15177" lon="6.33556">
        <ele>540.4</ele>
        <time>2020-04-03T13:34:59Z</time>
      </trkpt>
      <trkpt lat="46.15178" lon="6.33574">
        <ele>540.88</ele>
        <time>2020-04-03T13:35:00Z</time>
      </trkpt>
      <trkpt lat="46.1518" lon="6.33591">
        <ele>540.88</ele>
        <time>2020-04-03T13:35:01Z</time>
      </trkpt>
      <trkpt lat="46.15184" lon="6.33606">
        <ele>541.36</ele>
        <time>2020-04-03T13:35:02Z</time>
      </trkpt>
      <trkpt lat="46.15189" lon="6.3362">
        <ele>541.84</ele>
        <time>2020-04-03T13:35:03Z</time>
      </trkpt>
      <trkpt lat="46.15234" lon="6.33791">
        <ele>543.76</ele>
        <time>2020-04-03T13:35:13Z</time>
      </trkpt>
      <trkpt lat="46.15249" lon="6.33871">
        <ele>543.76</ele>
        <time>2020-04-03T13:35:17Z</time>
      </trkpt>
      <trkpt lat="46.15259" lon="6.33926">
        <ele>543.28</ele>
        <time>2020-04-03T13:35:19Z</time>
      </trkpt>
      <trkpt lat="46.15288" lon="6.34036">
        <ele>539.44</ele>
        <time>2020-04-03T13:35:25Z</time>
      </trkpt>
      <trkpt lat="46.15288" lon="6.34036">
        <ele>538.96</ele>
        <time>2020-04-03T13:35:26Z</time>
      </trkpt>
      <trkpt lat="46.1529" lon="6.34057">
        <ele>538.96</ele>
        <time>2020-04-03T13:35:27Z</time>
      </trkpt>
      <trkpt lat="46.15289" lon="6.34077">
        <ele>538.96</ele>
        <time>2020-04-03T13:35:28Z</time>
      </trkpt>
      <trkpt lat="46.15288" lon="6.34095">
        <ele>539.44</ele>
        <time>2020-04-03T13:35:29Z</time>
      </trkpt>
      <trkpt lat="46.15288" lon="6.34113">
        <ele>540.4</ele>
        <time>2020-04-03T13:35:30Z</time>
      </trkpt>
      <trkpt lat="46.15286" lon="6.34161">
        <ele>543.28</ele>
        <time>2020-04-03T13:35:33Z</time>
      </trkpt>
      <trkpt lat="46.15289" lon="6.34188">
        <ele>544.72</ele>
        <time>2020-04-03T13:35:34Z</time>
      </trkpt>
      <trkpt lat="46.15289" lon="6.34188">
        <ele>545.2</ele>
        <time>2020-04-03T13:35:35Z</time>
      </trkpt>
      <trkpt lat="46.15295" lon="6.34214">
        <ele>546.17</ele>
        <time>2020-04-03T13:35:36Z</time>
      </trkpt>
      <trkpt lat="46.153" lon="6.34228">
        <ele>546.65</ele>
        <time>2020-04-03T13:35:37Z</time>
      </trkpt>
      <trkpt lat="46.153" lon="6.34228">
        <ele>547.13</ele>
        <time>2020-04-03T13:35:38Z</time>
      </trkpt>
      <trkpt lat="46.15312" lon="6.34258">
        <ele>548.09</ele>
        <time>2020-04-03T13:35:39Z</time>
      </trkpt>
      <trkpt lat="46.15357" lon="6.34374">
        <ele>551.45</ele>
        <time>2020-04-03T13:35:47Z</time>
      </trkpt>
      <trkpt lat="46.15362" lon="6.34387">
        <ele>552.41</ele>
        <time>2020-04-03T13:35:48Z</time>
      </trkpt>
      <trkpt lat="46.15366" lon="6.34397">
        <ele>552.41</ele>
        <time>2020-04-03T13:35:49Z</time>
      </trkpt>
      <trkpt lat="46.15363" lon="6.34418">
        <ele>552.9</ele>
        <time>2020-04-03T13:35:50Z</time>
      </trkpt>
      <trkpt lat="46.15356" lon="6.34424">
        <ele>553.38</ele>
        <time>2020-04-03T13:35:51Z</time>
      </trkpt>
      <trkpt lat="46.15347" lon="6.34431">
        <ele>554.82</ele>
        <time>2020-04-03T13:35:52Z</time>
      </trkpt>
      <trkpt lat="46.15334" lon="6.34433">
        <ele>555.78</ele>
        <time>2020-04-03T13:35:53Z</time>
      </trkpt>
      <trkpt lat="46.15322" lon="6.3443">
        <ele>557.22</ele>
        <time>2020-04-03T13:35:54Z</time>
      </trkpt>
      <trkpt lat="46.15299" lon="6.34416">
        <ele>558.66</ele>
        <time>2020-04-03T13:35:55Z</time>
      </trkpt>
      <trkpt lat="46.15299" lon="6.34416">
        <ele>560.11</ele>
        <time>2020-04-03T13:35:56Z</time>
      </trkpt>
      <trkpt lat="46.15288" lon="6.34408">
        <ele>561.07</ele>
        <time>2020-04-03T13:35:57Z</time>
      </trkpt>
      <trkpt lat="46.1528" lon="6.344">
        <ele>562.03</ele>
        <time>2020-04-03T13:35:58Z</time>
      </trkpt>
      <trkpt lat="46.15274" lon="6.34391">
        <ele>562.99</ele>
        <time>2020-04-03T13:35:59Z</time>
      </trkpt>
      <trkpt lat="46.15268" lon="6.34384">
        <ele>562.99</ele>
        <time>2020-04-03T13:36:00Z</time>
      </trkpt>
      <trkpt lat="46.15262" lon="6.34381">
        <ele>563.47</ele>
        <time>2020-04-03T13:36:01Z</time>
      </trkpt>
      <trkpt lat="46.15258" lon="6.34381">
        <ele>563.95</ele>
        <time>2020-04-03T13:36:02Z</time>
      </trkpt>
      <trkpt lat="46.15251" lon="6.34372">
        <ele>564.43</ele>
        <time>2020-04-03T13:36:03Z</time>
      </trkpt>
      <trkpt lat="46.15247" lon="6.34365">
        <ele>564.43</ele>
        <time>2020-04-03T13:36:04Z</time>
      </trkpt>
      <trkpt lat="46.15241" lon="6.34356">
        <ele>564.43</ele>
        <time>2020-04-03T13:36:05Z</time>
      </trkpt>
      <trkpt lat="46.15213" lon="6.34307">
        <ele>564.43</ele>
        <time>2020-04-03T13:36:10Z</time>
      </trkpt>
      <trkpt lat="46.1521" lon="6.343">
        <ele>564.43</ele>
        <time>2020-04-03T13:36:11Z</time>
      </trkpt>
      <trkpt lat="46.15207" lon="6.34295">
        <ele>563.95</ele>
        <time>2020-04-03T13:36:12Z</time>
      </trkpt>
      <trkpt lat="46.15205" lon="6.34294">
        <ele>563.95</ele>
        <time>2020-04-03T13:36:13Z</time>
      </trkpt>
      <trkpt lat="46.15202" lon="6.34299">
        <ele>563.95</ele>
        <time>2020-04-03T13:36:14Z</time>
      </trkpt>
      <trkpt lat="46.15197" lon="6.34305">
        <ele>563.47</ele>
        <time>2020-04-03T13:36:15Z</time>
      </trkpt>
      <trkpt lat="46.1517" lon="6.3434">
        <ele>562.51</ele>
        <time>2020-04-03T13:36:19Z</time>
      </trkpt>
      <trkpt lat="46.15161" lon="6.34355">
        <ele>562.03</ele>
        <time>2020-04-03T13:36:20Z</time>
      </trkpt>
      <trkpt lat="46.15154" lon="6.34367">
        <ele>561.55</ele>
        <time>2020-04-03T13:36:21Z</time>
      </trkpt>
      <trkpt lat="46.15111" lon="6.34441">
        <ele>561.07</ele>
        <time>2020-04-03T13:36:27Z</time>
      </trkpt>
      <trkpt lat="46.15104" lon="6.34457">
        <ele>561.55</ele>
        <time>2020-04-03T13:36:28Z</time>
      </trkpt>
      <trkpt lat="46.1507" lon="6.34535">
        <ele>565.87</ele>
        <time>2020-04-03T13:36:33Z</time>
      </trkpt>
      <trkpt lat="46.15062" lon="6.3455">
        <ele>566.83</ele>
        <time>2020-04-03T13:36:34Z</time>
      </trkpt>
      <trkpt lat="46.15052" lon="6.34564">
        <ele>568.28</ele>
        <time>2020-04-03T13:36:35Z</time>
      </trkpt>
      <trkpt lat="46.14991" lon="6.34635">
        <ele>574.53</ele>
        <time>2020-04-03T13:36:41Z</time>
      </trkpt>
      <trkpt lat="46.14981" lon="6.34646">
        <ele>575.49</ele>
        <time>2020-04-03T13:36:42Z</time>
      </trkpt>
      <trkpt lat="46.1497" lon="6.34659">
        <ele>576.45</ele>
        <time>2020-04-03T13:36:43Z</time>
      </trkpt>
      <trkpt lat="46.14959" lon="6.3467">
        <ele>577.41</ele>
        <time>2020-04-03T13:36:44Z</time>
      </trkpt>
      <trkpt lat="46.14946" lon="6.34679">
        <ele>578.37</ele>
        <time>2020-04-03T13:36:45Z</time>
      </trkpt>
      <trkpt lat="46.14933" lon="6.34687">
        <ele>579.81</ele>
        <time>2020-04-03T13:36:46Z</time>
      </trkpt>
      <trkpt lat="46.14921" lon="6.34695">
        <ele>580.77</ele>
        <time>2020-04-03T13:36:47Z</time>
      </trkpt>
      <trkpt lat="46.14909" lon="6.34703">
        <ele>582.22</ele>
        <time>2020-04-03T13:36:48Z</time>
      </trkpt>
      <trkpt lat="46.14899" lon="6.34715">
        <ele>583.66</ele>
        <time>2020-04-03T13:36:49Z</time>
      </trkpt>
      <trkpt lat="46.14888" lon="6.3473">
        <ele>585.1</ele>
        <time>2020-04-03T13:36:50Z</time>
      </trkpt>
      <trkpt lat="46.1488" lon="6.34748">
        <ele>586.54</ele>
        <time>2020-04-03T13:36:51Z</time>
      </trkpt>
      <trkpt lat="46.14823" lon="6.34887">
        <ele>600.96</ele>
        <time>2020-04-03T13:36:59Z</time>
      </trkpt>
      <trkpt lat="46.14816" lon="6.34899">
        <ele>602.4</ele>
        <time>2020-04-03T13:37:00Z</time>
      </trkpt>
      <trkpt lat="46.14806" lon="6.3491">
        <ele>603.85</ele>
        <time>2020-04-03T13:37:01Z</time>
      </trkpt>
      <trkpt lat="46.14703" lon="6.34996">
        <ele>619.71</ele>
        <time>2020-04-03T13:37:11Z</time>
      </trkpt>
      <trkpt lat="46.14693" lon="6.35004">
        <ele>621.15</ele>
        <time>2020-04-03T13:37:12Z</time>
      </trkpt>
      <trkpt lat="46.14621" lon="6.35087">
        <ele>630.28</ele>
        <time>2020-04-03T13:37:20Z</time>
      </trkpt>
      <trkpt lat="46.14621" lon="6.35087">
        <ele>631.24</ele>
        <time>2020-04-03T13:37:21Z</time>
      </trkpt>
      <trkpt lat="46.14615" lon="6.35095">
        <ele>632.2</ele>
        <time>2020-04-03T13:37:22Z</time>
      </trkpt>
      <trkpt lat="46.14608" lon="6.35105">
        <ele>633.65</ele>
        <time>2020-04-03T13:37:23Z</time>
      </trkpt>
      <trkpt lat="46.14603" lon="6.35116">
        <ele>634.61</ele>
        <time>2020-04-03T13:37:24Z</time>
      </trkpt>
      <trkpt lat="46.146" lon="6.35129">
        <ele>635.57</ele>
        <time>2020-04-03T13:37:25Z</time>
      </trkpt>
      <trkpt lat="46.14569" lon="6.35242">
        <ele>639.89</ele>
        <time>2020-04-03T13:37:34Z</time>
      </trkpt>
      <trkpt lat="46.14559" lon="6.35282">
        <ele>640.86</ele>
        <time>2020-04-03T13:37:37Z</time>
      </trkpt>
      <trkpt lat="46.14559" lon="6.35282">
        <ele>641.34</ele>
        <time>2020-04-03T13:37:38Z</time>
      </trkpt>
      <trkpt lat="46.14556" lon="6.35294">
        <ele>641.82</ele>
        <time>2020-04-03T13:37:39Z</time>
      </trkpt>
      <trkpt lat="46.14553" lon="6.35319">
        <ele>642.78</ele>
        <time>2020-04-03T13:37:41Z</time>
      </trkpt>
      <trkpt lat="46.14553" lon="6.35331">
        <ele>643.74</ele>
        <time>2020-04-03T13:37:42Z</time>
      </trkpt>
      <trkpt lat="46.1455" lon="6.35414">
        <ele>648.55</ele>
        <time>2020-04-03T13:37:49Z</time>
      </trkpt>
      <trkpt lat="46.1455" lon="6.35422">
        <ele>649.51</ele>
        <time>2020-04-03T13:37:50Z</time>
      </trkpt>
      <trkpt lat="46.14543" lon="6.35427">
        <ele>650.47</ele>
        <time>2020-04-03T13:37:51Z</time>
      </trkpt>
      <trkpt lat="46.14539" lon="6.35427">
        <ele>651.43</ele>
        <time>2020-04-03T13:37:52Z</time>
      </trkpt>
      <trkpt lat="46.14532" lon="6.35428">
        <ele>651.91</ele>
        <time>2020-04-03T13:37:53Z</time>
      </trkpt>
      <trkpt lat="46.14426" lon="6.35429">
        <ele>657.2</ele>
        <time>2020-04-03T13:38:02Z</time>
      </trkpt>
      <trkpt lat="46.14405" lon="6.35423">
        <ele>660.08</ele>
        <time>2020-04-03T13:38:05Z</time>
      </trkpt>
      <trkpt lat="46.14395" lon="6.35421">
        <ele>661.52</ele>
        <time>2020-04-03T13:38:06Z</time>
      </trkpt>
      <trkpt lat="46.14385" lon="6.35421">
        <ele>662.49</ele>
        <time>2020-04-03T13:38:07Z</time>
      </trkpt>
      <trkpt lat="46.14285" lon="6.35449">
        <ele>665.85</ele>
        <time>2020-04-03T13:38:16Z</time>
      </trkpt>
      <trkpt lat="46.14238" lon="6.35464">
        <ele>665.85</ele>
        <time>2020-04-03T13:38:19Z</time>
      </trkpt>
      <trkpt lat="46.14116" lon="6.35515">
        <ele>670.18</ele>
        <time>2020-04-03T13:38:30Z</time>
      </trkpt>
      <trkpt lat="46.14005" lon="6.35577">
        <ele>675.94</ele>
        <time>2020-04-03T13:38:39Z</time>
      </trkpt>
      <trkpt lat="46.13888" lon="6.35596">
        <ele>682.19</ele>
        <time>2020-04-03T13:38:48Z</time>
      </trkpt>
      <trkpt lat="46.13835" lon="6.35599">
        <ele>684.12</ele>
        <time>2020-04-03T13:38:52Z</time>
      </trkpt>
      <trkpt lat="46.13822" lon="6.35601">
        <ele>685.08</ele>
        <time>2020-04-03T13:38:53Z</time>
      </trkpt>
      <trkpt lat="46.13697" lon="6.35676">
        <ele>690.84</ele>
        <time>2020-04-03T13:39:01Z</time>
      </trkpt>
      <trkpt lat="46.13697" lon="6.35676">
        <ele>691.33</ele>
        <time>2020-04-03T13:39:02Z</time>
      </trkpt>
      <trkpt lat="46.13643" lon="6.35691">
        <ele>693.25</ele>
        <time>2020-04-03T13:39:05Z</time>
      </trkpt>
      <trkpt lat="46.13625" lon="6.35695">
        <ele>693.25</ele>
        <time>2020-04-03T13:39:06Z</time>
      </trkpt>
      <trkpt lat="46.13608" lon="6.35706">
        <ele>693.73</ele>
        <time>2020-04-03T13:39:07Z</time>
      </trkpt>
      <trkpt lat="46.13591" lon="6.35719">
        <ele>693.73</ele>
        <time>2020-04-03T13:39:08Z</time>
      </trkpt>
      <trkpt lat="46.13574" lon="6.35732">
        <ele>693.73</ele>
        <time>2020-04-03T13:39:09Z</time>
      </trkpt>
      <trkpt lat="46.13555" lon="6.35743">
        <ele>694.21</ele>
        <time>2020-04-03T13:39:10Z</time>
      </trkpt>
      <trkpt lat="46.13534" lon="6.35751">
        <ele>694.21</ele>
        <time>2020-04-03T13:39:11Z</time>
      </trkpt>
      <trkpt lat="46.13454" lon="6.35785">
        <ele>695.65</ele>
        <time>2020-04-03T13:39:15Z</time>
      </trkpt>
      <trkpt lat="46.13435" lon="6.35793">
        <ele>695.65</ele>
        <time>2020-04-03T13:39:16Z</time>
      </trkpt>
      <trkpt lat="46.13414" lon="6.35796">
        <ele>695.65</ele>
        <time>2020-04-03T13:39:17Z</time>
      </trkpt>
      <trkpt lat="46.1324" lon="6.35827">
        <ele>694.21</ele>
        <time>2020-04-03T13:39:25Z</time>
      </trkpt>
      <trkpt lat="46.13105" lon="6.35877">
        <ele>693.25</ele>
        <time>2020-04-03T13:39:31Z</time>
      </trkpt>
      <trkpt lat="46.13088" lon="6.35891">
        <ele>693.73</ele>
        <time>2020-04-03T13:39:33Z</time>
      </trkpt>
      <trkpt lat="46.12963" lon="6.35994">
        <ele>695.17</ele>
        <time>2020-04-03T13:39:40Z</time>
      </trkpt>
      <trkpt lat="46.12935" lon="6.36019">
        <ele>696.13</ele>
        <time>2020-04-03T13:39:42Z</time>
      </trkpt>
      <trkpt lat="46.12921" lon="6.36032">
        <ele>696.13</ele>
        <time>2020-04-03T13:39:43Z</time>
      </trkpt>
      <trkpt lat="46.12909" lon="6.36049">
        <ele>696.13</ele>
        <time>2020-04-03T13:39:44Z</time>
      </trkpt>
      <trkpt lat="46.12824" lon="6.36185">
        <ele>695.65</ele>
        <time>2020-04-03T13:39:51Z</time>
      </trkpt>
      <trkpt lat="46.12816" lon="6.36199">
        <ele>695.17</ele>
        <time>2020-04-03T13:39:52Z</time>
      </trkpt>
      <trkpt lat="46.12808" lon="6.3621">
        <ele>695.17</ele>
        <time>2020-04-03T13:39:53Z</time>
      </trkpt>
      <trkpt lat="46.12801" lon="6.36217">
        <ele>694.69</ele>
        <time>2020-04-03T13:39:54Z</time>
      </trkpt>
      <trkpt lat="46.12796" lon="6.36224">
        <ele>694.69</ele>
        <time>2020-04-03T13:39:55Z</time>
      </trkpt>
      <trkpt lat="46.12787" lon="6.36227">
        <ele>694.69</ele>
        <time>2020-04-03T13:39:56Z</time>
      </trkpt>
      <trkpt lat="46.12782" lon="6.36222">
        <ele>694.69</ele>
        <time>2020-04-03T13:39:57Z</time>
      </trkpt>
      <trkpt lat="46.12775" lon="6.36215">
        <ele>694.21</ele>
        <time>2020-04-03T13:39:58Z</time>
      </trkpt>
      <trkpt lat="46.12765" lon="6.36206">
        <ele>694.21</ele>
        <time>2020-04-03T13:39:59Z</time>
      </trkpt>
      <trkpt lat="46.12738" lon="6.36181">
        <ele>693.73</ele>
        <time>2020-04-03T13:40:00Z</time>
      </trkpt>
      <trkpt lat="46.12722" lon="6.3617">
        <ele>693.25</ele>
        <time>2020-04-03T13:40:01Z</time>
      </trkpt>
      <trkpt lat="46.12722" lon="6.3617">
        <ele>692.77</ele>
        <time>2020-04-03T13:40:02Z</time>
      </trkpt>
      <trkpt lat="46.12705" lon="6.36159">
        <ele>691.81</ele>
        <time>2020-04-03T13:40:03Z</time>
      </trkpt>
      <trkpt lat="46.12686" lon="6.36154">
        <ele>691.33</ele>
        <time>2020-04-03T13:40:04Z</time>
      </trkpt>
      <trkpt lat="46.12668" lon="6.36149">
        <ele>690.36</ele>
        <time>2020-04-03T13:40:05Z</time>
      </trkpt>
      <trkpt lat="46.1265" lon="6.36146">
        <ele>689.88</ele>
        <time>2020-04-03T13:40:06Z</time>
      </trkpt>
      <trkpt lat="46.12528" lon="6.36143">
        <ele>683.15</ele>
        <time>2020-04-03T13:40:14Z</time>
      </trkpt>
      <trkpt lat="46.12407" lon="6.36129">
        <ele>677.87</ele>
        <time>2020-04-03T13:40:24Z</time>
      </trkpt>
      <trkpt lat="46.12398" lon="6.36128">
        <ele>677.39</ele>
        <time>2020-04-03T13:40:25Z</time>
      </trkpt>
      <trkpt lat="46.1239" lon="6.36125">
        <ele>676.91</ele>
        <time>2020-04-03T13:40:26Z</time>
      </trkpt>
      <trkpt lat="46.12384" lon="6.36123">
        <ele>676.42</ele>
        <time>2020-04-03T13:40:27Z</time>
      </trkpt>
      <trkpt lat="46.12375" lon="6.36118">
        <ele>675.46</ele>
        <time>2020-04-03T13:40:28Z</time>
      </trkpt>
      <trkpt lat="46.12375" lon="6.36118">
        <ele>674.5</ele>
        <time>2020-04-03T13:40:29Z</time>
      </trkpt>
      <trkpt lat="46.12373" lon="6.36117">
        <ele>674.02</ele>
        <time>2020-04-03T13:40:30Z</time>
      </trkpt>
      <trkpt lat="46.12371" lon="6.36116">
        <ele>673.06</ele>
        <time>2020-04-03T13:40:31Z</time>
      </trkpt>
      <trkpt lat="46.1238" lon="6.36121">
        <ele>669.7</ele>
        <time>2020-04-03T13:40:37Z</time>
      </trkpt>
      <trkpt lat="46.1238" lon="6.36121">
        <ele>669.7</ele>
        <time>2020-04-03T13:40:38Z</time>
      </trkpt>
      <trkpt lat="46.1238" lon="6.36121">
        <ele>669.22</ele>
        <time>2020-04-03T13:40:39Z</time>
      </trkpt>
      <trkpt lat="46.1238" lon="6.36121">
        <ele>669.22</ele>
        <time>2020-04-03T13:40:50Z</time>
      </trkpt>
      <trkpt lat="46.12392" lon="6.36105">
        <ele>661.52</ele>
        <time>2020-04-03T13:52:55Z</time>
      </trkpt>
      <trkpt lat="46.1238" lon="6.36121">
        <ele>672.1</ele>
        <time>2020-04-03T13:53:03Z</time>
      </trkpt>
      <trkpt lat="46.12373" lon="6.36117">
        <ele>672.58</ele>
        <time>2020-04-03T13:53:04Z</time>
      </trkpt>
      <trkpt lat="46.12372" lon="6.36116">
        <ele>672.58</ele>
        <time>2020-04-03T13:53:05Z</time>
      </trkpt>
      <trkpt lat="46.1238" lon="6.36121">
        <ele>673.06</ele>
        <time>2020-04-03T13:53:06Z</time>
      </trkpt>
      <trkpt lat="46.1238" lon="6.36121">
        <ele>673.54</ele>
        <time>2020-04-03T13:53:07Z</time>
      </trkpt>
      <trkpt lat="46.1238" lon="6.36121">
        <ele>673.54</ele>
        <time>2020-04-03T13:53:08Z</time>
      </trkpt>
      <trkpt lat="46.1238" lon="6.36121">
        <ele>673.54</ele>
        <time>2020-04-03T13:53:09Z</time>
      </trkpt>
      <trkpt lat="46.12373" lon="6.36117">
        <ele>674.02</ele>
        <time>2020-04-03T13:53:12Z</time>
      </trkpt>
      <trkpt lat="46.12371" lon="6.36115">
        <ele>674.02</ele>
        <time>2020-04-03T13:53:13Z</time>
      </trkpt>
      <trkpt lat="46.12366" lon="6.36112">
        <ele>674.02</ele>
        <time>2020-04-03T13:53:14Z</time>
      </trkpt>
      <trkpt lat="46.12359" lon="6.36108">
        <ele>674.02</ele>
        <time>2020-04-03T13:53:15Z</time>
      </trkpt>
      <trkpt lat="46.12351" lon="6.36103">
        <ele>674.02</ele>
        <time>2020-04-03T13:53:16Z</time>
      </trkpt>
      <trkpt lat="46.12293" lon="6.36061">
        <ele>671.62</ele>
        <time>2020-04-03T13:53:24Z</time>
      </trkpt>
      <trkpt lat="46.12198" lon="6.35988">
        <ele>665.37</ele>
        <time>2020-04-03T13:53:34Z</time>
      </trkpt>
      <trkpt lat="46.12083" lon="6.359">
        <ele>658.16</ele>
        <time>2020-04-03T13:53:46Z</time>
      </trkpt>
      <trkpt lat="46.12004" lon="6.35835">
        <ele>653.35</ele>
        <time>2020-04-03T13:53:56Z</time>
      </trkpt>
      <trkpt lat="46.11947" lon="6.35806">
        <ele>649.99</ele>
        <time>2020-04-03T13:54:02Z</time>
      </trkpt>
      <trkpt lat="46.11885" lon="6.35787">
        <ele>646.14</ele>
        <time>2020-04-03T13:54:10Z</time>
      </trkpt>
      <trkpt lat="46.11802" lon="6.35765">
        <ele>643.26</ele>
        <time>2020-04-03T13:54:19Z</time>
      </trkpt>
      <trkpt lat="46.1179" lon="6.35765">
        <ele>642.78</ele>
        <time>2020-04-03T13:54:20Z</time>
      </trkpt>
      <trkpt lat="46.11779" lon="6.35768">
        <ele>642.3</ele>
        <time>2020-04-03T13:54:21Z</time>
      </trkpt>
      <trkpt lat="46.11768" lon="6.35775">
        <ele>641.82</ele>
        <time>2020-04-03T13:54:22Z</time>
      </trkpt>
      <trkpt lat="46.11757" lon="6.35782">
        <ele>641.34</ele>
        <time>2020-04-03T13:54:23Z</time>
      </trkpt>
      <trkpt lat="46.11746" lon="6.35791">
        <ele>640.86</ele>
        <time>2020-04-03T13:54:24Z</time>
      </trkpt>
      <trkpt lat="46.11724" lon="6.35804">
        <ele>638.93</ele>
        <time>2020-04-03T13:54:26Z</time>
      </trkpt>
      <trkpt lat="46.11713" lon="6.35806">
        <ele>637.97</ele>
        <time>2020-04-03T13:54:27Z</time>
      </trkpt>
      <trkpt lat="46.11702" lon="6.35806">
        <ele>637.01</ele>
        <time>2020-04-03T13:54:28Z</time>
      </trkpt>
      <trkpt lat="46.11691" lon="6.358">
        <ele>636.05</ele>
        <time>2020-04-03T13:54:29Z</time>
      </trkpt>
      <trkpt lat="46.11679" lon="6.35792">
        <ele>635.09</ele>
        <time>2020-04-03T13:54:30Z</time>
      </trkpt>
      <trkpt lat="46.11668" lon="6.35778">
        <ele>634.13</ele>
        <time>2020-04-03T13:54:31Z</time>
      </trkpt>
      <trkpt lat="46.11657" lon="6.35762">
        <ele>633.17</ele>
        <time>2020-04-03T13:54:32Z</time>
      </trkpt>
      <trkpt lat="46.11625" lon="6.35716">
        <ele>630.28</ele>
        <time>2020-04-03T13:54:35Z</time>
      </trkpt>
      <trkpt lat="46.11615" lon="6.35703">
        <ele>629.8</ele>
        <time>2020-04-03T13:54:36Z</time>
      </trkpt>
      <trkpt lat="46.11604" lon="6.35693">
        <ele>628.84</ele>
        <time>2020-04-03T13:54:37Z</time>
      </trkpt>
      <trkpt lat="46.11594" lon="6.35686">
        <ele>628.36</ele>
        <time>2020-04-03T13:54:38Z</time>
      </trkpt>
      <trkpt lat="46.11584" lon="6.35684">
        <ele>627.88</ele>
        <time>2020-04-03T13:54:39Z</time>
      </trkpt>
      <trkpt lat="46.11574" lon="6.35685">
        <ele>627.4</ele>
        <time>2020-04-03T13:54:40Z</time>
      </trkpt>
      <trkpt lat="46.11566" lon="6.3569">
        <ele>626.92</ele>
        <time>2020-04-03T13:54:41Z</time>
      </trkpt>
      <trkpt lat="46.11558" lon="6.357">
        <ele>626.44</ele>
        <time>2020-04-03T13:54:42Z</time>
      </trkpt>
      <trkpt lat="46.11552" lon="6.35707">
        <ele>625.47</ele>
        <time>2020-04-03T13:54:43Z</time>
      </trkpt>
      <trkpt lat="46.11551" lon="6.35724">
        <ele>624.99</ele>
        <time>2020-04-03T13:54:44Z</time>
      </trkpt>
      <trkpt lat="46.1155" lon="6.3574">
        <ele>624.51</ele>
        <time>2020-04-03T13:54:45Z</time>
      </trkpt>
      <trkpt lat="46.11552" lon="6.35754">
        <ele>624.03</ele>
        <time>2020-04-03T13:54:46Z</time>
      </trkpt>
      <trkpt lat="46.11557" lon="6.35772">
        <ele>623.55</ele>
        <time>2020-04-03T13:54:47Z</time>
      </trkpt>
      <trkpt lat="46.11561" lon="6.35792">
        <ele>622.59</ele>
        <time>2020-04-03T13:54:48Z</time>
      </trkpt>
      <trkpt lat="46.11563" lon="6.35813">
        <ele>621.63</ele>
        <time>2020-04-03T13:54:49Z</time>
      </trkpt>
      <trkpt lat="46.11566" lon="6.35835">
        <ele>620.67</ele>
        <time>2020-04-03T13:54:50Z</time>
      </trkpt>
      <trkpt lat="46.1157" lon="6.35856">
        <ele>620.19</ele>
        <time>2020-04-03T13:54:51Z</time>
      </trkpt>
      <trkpt lat="46.11577" lon="6.35879">
        <ele>619.23</ele>
        <time>2020-04-03T13:54:52Z</time>
      </trkpt>
      <trkpt lat="46.11597" lon="6.35956">
        <ele>615.38</ele>
        <time>2020-04-03T13:54:56Z</time>
      </trkpt>
      <trkpt lat="46.11597" lon="6.35971">
        <ele>614.42</ele>
        <time>2020-04-03T13:54:57Z</time>
      </trkpt>
      <trkpt lat="46.11593" lon="6.35984">
        <ele>613.46</ele>
        <time>2020-04-03T13:54:58Z</time>
      </trkpt>
      <trkpt lat="46.11586" lon="6.35996">
        <ele>612.5</ele>
        <time>2020-04-03T13:54:59Z</time>
      </trkpt>
      <trkpt lat="46.11577" lon="6.36009">
        <ele>611.54</ele>
        <time>2020-04-03T13:55:00Z</time>
      </trkpt>
      <trkpt lat="46.11569" lon="6.36022">
        <ele>611.06</ele>
        <time>2020-04-03T13:55:01Z</time>
      </trkpt>
      <trkpt lat="46.11561" lon="6.36031">
        <ele>610.09</ele>
        <time>2020-04-03T13:55:02Z</time>
      </trkpt>
      <trkpt lat="46.1155" lon="6.36038">
        <ele>609.61</ele>
        <time>2020-04-03T13:55:03Z</time>
      </trkpt>
      <trkpt lat="46.11535" lon="6.36046">
        <ele>609.13</ele>
        <time>2020-04-03T13:55:04Z</time>
      </trkpt>
      <trkpt lat="46.11523" lon="6.36047">
        <ele>608.65</ele>
        <time>2020-04-03T13:55:05Z</time>
      </trkpt>
      <trkpt lat="46.11509" lon="6.36048">
        <ele>608.17</ele>
        <time>2020-04-03T13:55:06Z</time>
      </trkpt>
      <trkpt lat="46.11496" lon="6.36047">
        <ele>607.69</ele>
        <time>2020-04-03T13:55:07Z</time>
      </trkpt>
      <trkpt lat="46.11461" lon="6.36011">
        <ele>607.21</ele>
        <time>2020-04-03T13:55:10Z</time>
      </trkpt>
      <trkpt lat="46.11449" lon="6.35995">
        <ele>607.21</ele>
        <time>2020-04-03T13:55:11Z</time>
      </trkpt>
      <trkpt lat="46.11417" lon="6.35954">
        <ele>606.25</ele>
        <time>2020-04-03T13:55:14Z</time>
      </trkpt>
      <trkpt lat="46.11404" lon="6.35948">
        <ele>606.25</ele>
        <time>2020-04-03T13:55:15Z</time>
      </trkpt>
      <trkpt lat="46.11391" lon="6.35941">
        <ele>605.77</ele>
        <time>2020-04-03T13:55:16Z</time>
      </trkpt>
      <trkpt lat="46.11376" lon="6.35939">
        <ele>605.29</ele>
        <time>2020-04-03T13:55:17Z</time>
      </trkpt>
      <trkpt lat="46.1136" lon="6.35939">
        <ele>604.33</ele>
        <time>2020-04-03T13:55:18Z</time>
      </trkpt>
      <trkpt lat="46.11344" lon="6.3594">
        <ele>603.36</ele>
        <time>2020-04-03T13:55:19Z</time>
      </trkpt>
      <trkpt lat="46.11328" lon="6.35947">
        <ele>602.4</ele>
        <time>2020-04-03T13:55:20Z</time>
      </trkpt>
      <trkpt lat="46.11312" lon="6.35955">
        <ele>601.44</ele>
        <time>2020-04-03T13:55:21Z</time>
      </trkpt>
      <trkpt lat="46.11295" lon="6.35962">
        <ele>600.48</ele>
        <time>2020-04-03T13:55:22Z</time>
      </trkpt>
      <trkpt lat="46.1125" lon="6.35983">
        <ele>598.56</ele>
        <time>2020-04-03T13:55:25Z</time>
      </trkpt>
      <trkpt lat="46.11236" lon="6.35986">
        <ele>597.6</ele>
        <time>2020-04-03T13:55:26Z</time>
      </trkpt>
      <trkpt lat="46.11221" lon="6.35986">
        <ele>596.64</ele>
        <time>2020-04-03T13:55:27Z</time>
      </trkpt>
      <trkpt lat="46.11204" lon="6.35986">
        <ele>595.67</ele>
        <time>2020-04-03T13:55:28Z</time>
      </trkpt>
      <trkpt lat="46.11187" lon="6.35989">
        <ele>594.23</ele>
        <time>2020-04-03T13:55:29Z</time>
      </trkpt>
      <trkpt lat="46.11134" lon="6.36002">
        <ele>590.87</ele>
        <time>2020-04-03T13:55:32Z</time>
      </trkpt>
      <trkpt lat="46.11118" lon="6.36005">
        <ele>589.91</ele>
        <time>2020-04-03T13:55:33Z</time>
      </trkpt>
      <trkpt lat="46.11104" lon="6.36003">
        <ele>588.95</ele>
        <time>2020-04-03T13:55:34Z</time>
      </trkpt>
      <trkpt lat="46.11091" lon="6.36002">
        <ele>588.46</ele>
        <time>2020-04-03T13:55:35Z</time>
      </trkpt>
      <trkpt lat="46.1108" lon="6.36005">
        <ele>587.5</ele>
        <time>2020-04-03T13:55:36Z</time>
      </trkpt>
      <trkpt lat="46.11067" lon="6.3601">
        <ele>587.02</ele>
        <time>2020-04-03T13:55:37Z</time>
      </trkpt>
      <trkpt lat="46.11059" lon="6.36022">
        <ele>587.02</ele>
        <time>2020-04-03T13:55:38Z</time>
      </trkpt>
      <trkpt lat="46.11049" lon="6.36036">
        <ele>586.54</ele>
        <time>2020-04-03T13:55:39Z</time>
      </trkpt>
      <trkpt lat="46.11039" lon="6.36051">
        <ele>586.06</ele>
        <time>2020-04-03T13:55:40Z</time>
      </trkpt>
      <trkpt lat="46.11031" lon="6.36063">
        <ele>585.58</ele>
        <time>2020-04-03T13:55:41Z</time>
      </trkpt>
      <trkpt lat="46.11019" lon="6.36072">
        <ele>585.58</ele>
        <time>2020-04-03T13:55:42Z</time>
      </trkpt>
      <trkpt lat="46.11007" lon="6.36081">
        <ele>585.1</ele>
        <time>2020-04-03T13:55:43Z</time>
      </trkpt>
      <trkpt lat="46.10997" lon="6.36082">
        <ele>584.62</ele>
        <time>2020-04-03T13:55:44Z</time>
      </trkpt>
      <trkpt lat="46.10984" lon="6.36085">
        <ele>584.14</ele>
        <time>2020-04-03T13:55:45Z</time>
      </trkpt>
      <trkpt lat="46.1097" lon="6.36087">
        <ele>583.66</ele>
        <time>2020-04-03T13:55:46Z</time>
      </trkpt>
      <trkpt lat="46.10956" lon="6.36091">
        <ele>583.18</ele>
        <time>2020-04-03T13:55:47Z</time>
      </trkpt>
      <trkpt lat="46.10945" lon="6.36104">
        <ele>582.7</ele>
        <time>2020-04-03T13:55:48Z</time>
      </trkpt>
      <trkpt lat="46.10932" lon="6.36118">
        <ele>582.22</ele>
        <time>2020-04-03T13:55:49Z</time>
      </trkpt>
      <trkpt lat="46.1092" lon="6.36132">
        <ele>581.73</ele>
        <time>2020-04-03T13:55:50Z</time>
      </trkpt>
      <trkpt lat="46.10908" lon="6.36145">
        <ele>581.73</ele>
        <time>2020-04-03T13:55:51Z</time>
      </trkpt>
      <trkpt lat="46.10893" lon="6.36155">
        <ele>580.77</ele>
        <time>2020-04-03T13:55:52Z</time>
      </trkpt>
      <trkpt lat="46.10876" lon="6.36161">
        <ele>580.29</ele>
        <time>2020-04-03T13:55:53Z</time>
      </trkpt>
      <trkpt lat="46.10859" lon="6.36163">
        <ele>579.81</ele>
        <time>2020-04-03T13:55:54Z</time>
      </trkpt>
      <trkpt lat="46.10841" lon="6.36165">
        <ele>579.33</ele>
        <time>2020-04-03T13:55:55Z</time>
      </trkpt>
      <trkpt lat="46.10799" lon="6.3617">
        <ele>576.93</ele>
        <time>2020-04-03T13:55:58Z</time>
      </trkpt>
      <trkpt lat="46.10788" lon="6.36174">
        <ele>576.45</ele>
        <time>2020-04-03T13:55:59Z</time>
      </trkpt>
      <trkpt lat="46.10779" lon="6.36186">
        <ele>575.97</ele>
        <time>2020-04-03T13:56:00Z</time>
      </trkpt>
      <trkpt lat="46.1077" lon="6.36201">
        <ele>575.49</ele>
        <time>2020-04-03T13:56:01Z</time>
      </trkpt>
      <trkpt lat="46.10762" lon="6.3622">
        <ele>575.01</ele>
        <time>2020-04-03T13:56:02Z</time>
      </trkpt>
      <trkpt lat="46.10753" lon="6.36238">
        <ele>574.53</ele>
        <time>2020-04-03T13:56:03Z</time>
      </trkpt>
      <trkpt lat="46.10745" lon="6.36253">
        <ele>574.04</ele>
        <time>2020-04-03T13:56:04Z</time>
      </trkpt>
      <trkpt lat="46.10734" lon="6.36262">
        <ele>573.08</ele>
        <time>2020-04-03T13:56:05Z</time>
      </trkpt>
      <trkpt lat="46.10724" lon="6.36271">
        <ele>573.08</ele>
        <time>2020-04-03T13:56:06Z</time>
      </trkpt>
      <trkpt lat="46.10712" lon="6.36273">
        <ele>572.6</ele>
        <time>2020-04-03T13:56:07Z</time>
      </trkpt>
      <trkpt lat="46.107" lon="6.36272">
        <ele>572.6</ele>
        <time>2020-04-03T13:56:08Z</time>
      </trkpt>
      <trkpt lat="46.10688" lon="6.36267">
        <ele>572.6</ele>
        <time>2020-04-03T13:56:09Z</time>
      </trkpt>
      <trkpt lat="46.10676" lon="6.36262">
        <ele>573.08</ele>
        <time>2020-04-03T13:56:10Z</time>
      </trkpt>
      <trkpt lat="46.10665" lon="6.36257">
        <ele>573.08</ele>
        <time>2020-04-03T13:56:11Z</time>
      </trkpt>
      <trkpt lat="46.10653" lon="6.36255">
        <ele>573.08</ele>
        <time>2020-04-03T13:56:12Z</time>
      </trkpt>
      <trkpt lat="46.1064" lon="6.36259">
        <ele>573.08</ele>
        <time>2020-04-03T13:56:13Z</time>
      </trkpt>
      <trkpt lat="46.10626" lon="6.36268">
        <ele>573.56</ele>
        <time>2020-04-03T13:56:14Z</time>
      </trkpt>
      <trkpt lat="46.10611" lon="6.36278">
        <ele>573.08</ele>
        <time>2020-04-03T13:56:15Z</time>
      </trkpt>
      <trkpt lat="46.10597" lon="6.36292">
        <ele>573.08</ele>
        <time>2020-04-03T13:56:16Z</time>
      </trkpt>
      <trkpt lat="46.10581" lon="6.36307">
        <ele>573.08</ele>
        <time>2020-04-03T13:56:17Z</time>
      </trkpt>
      <trkpt lat="46.10566" lon="6.36322">
        <ele>573.08</ele>
        <time>2020-04-03T13:56:18Z</time>
      </trkpt>
      <trkpt lat="46.1055" lon="6.36338">
        <ele>572.6</ele>
        <time>2020-04-03T13:56:19Z</time>
      </trkpt>
      <trkpt lat="46.10518" lon="6.36367">
        <ele>572.12</ele>
        <time>2020-04-03T13:56:21Z</time>
      </trkpt>
      <trkpt lat="46.10502" lon="6.36375">
        <ele>572.12</ele>
        <time>2020-04-03T13:56:22Z</time>
      </trkpt>
      <trkpt lat="46.10457" lon="6.36398">
        <ele>572.12</ele>
        <time>2020-04-03T13:56:25Z</time>
      </trkpt>
      <trkpt lat="46.10446" lon="6.36411">
        <ele>572.12</ele>
        <time>2020-04-03T13:56:26Z</time>
      </trkpt>
      <trkpt lat="46.10435" lon="6.36429">
        <ele>572.12</ele>
        <time>2020-04-03T13:56:27Z</time>
      </trkpt>
      <trkpt lat="46.10422" lon="6.36447">
        <ele>572.12</ele>
        <time>2020-04-03T13:56:28Z</time>
      </trkpt>
      <trkpt lat="46.10408" lon="6.36466">
        <ele>571.64</ele>
        <time>2020-04-03T13:56:29Z</time>
      </trkpt>
      <trkpt lat="46.10393" lon="6.36486">
        <ele>570.68</ele>
        <time>2020-04-03T13:56:30Z</time>
      </trkpt>
      <trkpt lat="46.10375" lon="6.36502">
        <ele>570.68</ele>
        <time>2020-04-03T13:56:31Z</time>
      </trkpt>
      <trkpt lat="46.10358" lon="6.36518">
        <ele>569.72</ele>
        <time>2020-04-03T13:56:32Z</time>
      </trkpt>
      <trkpt lat="46.10159" lon="6.36679">
        <ele>559.62</ele>
        <time>2020-04-03T13:56:43Z</time>
      </trkpt>
      <trkpt lat="46.10013" lon="6.36833">
        <ele>553.86</ele>
        <time>2020-04-03T13:56:52Z</time>
      </trkpt>
      <trkpt lat="46.09982" lon="6.36863">
        <ele>552.41</ele>
        <time>2020-04-03T13:56:54Z</time>
      </trkpt>
      <trkpt lat="46.0988" lon="6.36923">
        <ele>547.61</ele>
        <time>2020-04-03T13:57:00Z</time>
      </trkpt>
      <trkpt lat="46.09864" lon="6.36924">
        <ele>546.65</ele>
        <time>2020-04-03T13:57:01Z</time>
      </trkpt>
      <trkpt lat="46.09848" lon="6.36926">
        <ele>545.69</ele>
        <time>2020-04-03T13:57:02Z</time>
      </trkpt>
      <trkpt lat="46.09805" lon="6.36933">
        <ele>542.32</ele>
        <time>2020-04-03T13:57:05Z</time>
      </trkpt>
      <trkpt lat="46.09794" lon="6.36939">
        <ele>541.84</ele>
        <time>2020-04-03T13:57:06Z</time>
      </trkpt>
      <trkpt lat="46.09785" lon="6.36951">
        <ele>540.88</ele>
        <time>2020-04-03T13:57:07Z</time>
      </trkpt>
      <trkpt lat="46.09777" lon="6.36966">
        <ele>539.92</ele>
        <time>2020-04-03T13:57:08Z</time>
      </trkpt>
      <trkpt lat="46.09768" lon="6.36984">
        <ele>538.48</ele>
        <time>2020-04-03T13:57:09Z</time>
      </trkpt>
      <trkpt lat="46.09687" lon="6.37138">
        <ele>530.79</ele>
        <time>2020-04-03T13:57:18Z</time>
      </trkpt>
      <trkpt lat="46.09676" lon="6.37148">
        <ele>529.82</ele>
        <time>2020-04-03T13:57:19Z</time>
      </trkpt>
      <trkpt lat="46.09664" lon="6.37158">
        <ele>528.86</ele>
        <time>2020-04-03T13:57:20Z</time>
      </trkpt>
      <trkpt lat="46.09624" lon="6.37186">
        <ele>526.46</ele>
        <time>2020-04-03T13:57:25Z</time>
      </trkpt>
      <trkpt lat="46.09551" lon="6.37234">
        <ele>524.06</ele>
        <time>2020-04-03T13:57:33Z</time>
      </trkpt>
      <trkpt lat="46.09531" lon="6.37247">
        <ele>523.09</ele>
        <time>2020-04-03T13:57:35Z</time>
      </trkpt>
      <trkpt lat="46.09523" lon="6.37256">
        <ele>523.09</ele>
        <time>2020-04-03T13:57:36Z</time>
      </trkpt>
      <trkpt lat="46.09514" lon="6.37265">
        <ele>522.61</ele>
        <time>2020-04-03T13:57:37Z</time>
      </trkpt>
      <trkpt lat="46.09419" lon="6.37377">
        <ele>514.92</ele>
        <time>2020-04-03T13:57:49Z</time>
      </trkpt>
      <trkpt lat="46.09412" lon="6.37387">
        <ele>514.92</ele>
        <time>2020-04-03T13:57:50Z</time>
      </trkpt>
      <trkpt lat="46.0939" lon="6.37425">
        <ele>514.44</ele>
        <time>2020-04-03T13:57:53Z</time>
      </trkpt>
      <trkpt lat="46.09332" lon="6.37553">
        <ele>510.12</ele>
        <time>2020-04-03T13:58:02Z</time>
      </trkpt>
      <trkpt lat="46.09315" lon="6.37577">
        <ele>508.19</ele>
        <time>2020-04-03T13:58:04Z</time>
      </trkpt>
      <trkpt lat="46.09263" lon="6.37641">
        <ele>506.27</ele>
        <time>2020-04-03T13:58:10Z</time>
      </trkpt>
      <trkpt lat="46.09217" lon="6.37728">
        <ele>502.43</ele>
        <time>2020-04-03T13:58:18Z</time>
      </trkpt>
      <trkpt lat="46.09144" lon="6.37868">
        <ele>500.02</ele>
        <time>2020-04-03T13:58:25Z</time>
      </trkpt>
      <trkpt lat="46.0905" lon="6.38033">
        <ele>496.18</ele>
        <time>2020-04-03T13:58:33Z</time>
      </trkpt>
      <trkpt lat="46.09021" lon="6.38089">
        <ele>495.22</ele>
        <time>2020-04-03T13:58:36Z</time>
      </trkpt>
      <trkpt lat="46.09016" lon="6.38108">
        <ele>495.22</ele>
        <time>2020-04-03T13:58:37Z</time>
      </trkpt>
      <trkpt lat="46.09011" lon="6.38132">
        <ele>494.74</ele>
        <time>2020-04-03T13:58:38Z</time>
      </trkpt>
      <trkpt lat="46.09007" lon="6.38155">
        <ele>494.74</ele>
        <time>2020-04-03T13:58:39Z</time>
      </trkpt>
      <trkpt lat="46.09002" lon="6.38177">
        <ele>494.26</ele>
        <time>2020-04-03T13:58:40Z</time>
      </trkpt>
      <trkpt lat="46.08992" lon="6.38222">
        <ele>492.33</ele>
        <time>2020-04-03T13:58:42Z</time>
      </trkpt>
      <trkpt lat="46.08984" lon="6.38241">
        <ele>491.37</ele>
        <time>2020-04-03T13:58:43Z</time>
      </trkpt>
      <trkpt lat="46.08972" lon="6.38259">
        <ele>490.41</ele>
        <time>2020-04-03T13:58:44Z</time>
      </trkpt>
      <trkpt lat="46.08926" lon="6.38326">
        <ele>487.05</ele>
        <time>2020-04-03T13:58:48Z</time>
      </trkpt>
      <trkpt lat="46.08918" lon="6.38345">
        <ele>486.56</ele>
        <time>2020-04-03T13:58:49Z</time>
      </trkpt>
      <trkpt lat="46.0891" lon="6.38366">
        <ele>485.6</ele>
        <time>2020-04-03T13:58:50Z</time>
      </trkpt>
      <trkpt lat="46.08869" lon="6.38558">
        <ele>479.84</ele>
        <time>2020-04-03T13:58:58Z</time>
      </trkpt>
      <trkpt lat="46.08861" lon="6.38602">
        <ele>478.39</ele>
        <time>2020-04-03T13:59:00Z</time>
      </trkpt>
      <trkpt lat="46.08856" lon="6.38623">
        <ele>477.91</ele>
        <time>2020-04-03T13:59:01Z</time>
      </trkpt>
      <trkpt lat="46.0885" lon="6.38644">
        <ele>476.95</ele>
        <time>2020-04-03T13:59:02Z</time>
      </trkpt>
      <trkpt lat="46.08845" lon="6.38665">
        <ele>475.51</ele>
        <time>2020-04-03T13:59:03Z</time>
      </trkpt>
      <trkpt lat="46.08837" lon="6.38685">
        <ele>474.55</ele>
        <time>2020-04-03T13:59:04Z</time>
      </trkpt>
      <trkpt lat="46.08829" lon="6.38705">
        <ele>473.59</ele>
        <time>2020-04-03T13:59:05Z</time>
      </trkpt>
      <trkpt lat="46.0882" lon="6.38725">
        <ele>473.11</ele>
        <time>2020-04-03T13:59:06Z</time>
      </trkpt>
      <trkpt lat="46.08811" lon="6.38745">
        <ele>472.14</ele>
        <time>2020-04-03T13:59:07Z</time>
      </trkpt>
      <trkpt lat="46.08803" lon="6.38765">
        <ele>470.7</ele>
        <time>2020-04-03T13:59:08Z</time>
      </trkpt>
      <trkpt lat="46.08792" lon="6.38784">
        <ele>469.74</ele>
        <time>2020-04-03T13:59:09Z</time>
      </trkpt>
      <trkpt lat="46.08781" lon="6.38801">
        <ele>468.78</ele>
        <time>2020-04-03T13:59:10Z</time>
      </trkpt>
      <trkpt lat="46.08742" lon="6.38869">
        <ele>465.9</ele>
        <time>2020-04-03T13:59:14Z</time>
      </trkpt>
      <trkpt lat="46.08736" lon="6.38888">
        <ele>465.42</ele>
        <time>2020-04-03T13:59:15Z</time>
      </trkpt>
      <trkpt lat="46.0873" lon="6.38908">
        <ele>464.93</ele>
        <time>2020-04-03T13:59:16Z</time>
      </trkpt>
      <trkpt lat="46.08728" lon="6.38929">
        <ele>464.45</ele>
        <time>2020-04-03T13:59:17Z</time>
      </trkpt>
      <trkpt lat="46.08725" lon="6.3895">
        <ele>463.97</ele>
        <time>2020-04-03T13:59:18Z</time>
      </trkpt>
      <trkpt lat="46.08723" lon="6.38969">
        <ele>463.97</ele>
        <time>2020-04-03T13:59:19Z</time>
      </trkpt>
      <trkpt lat="46.08721" lon="6.38985">
        <ele>464.45</ele>
        <time>2020-04-03T13:59:20Z</time>
      </trkpt>
      <trkpt lat="46.08729" lon="6.39059">
        <ele>462.53</ele>
        <time>2020-04-03T13:59:27Z</time>
      </trkpt>
      <trkpt lat="46.08722" lon="6.39058">
        <ele>462.05</ele>
        <time>2020-04-03T13:59:28Z</time>
      </trkpt>
      <trkpt lat="46.08709" lon="6.39057">
        <ele>460.61</ele>
        <time>2020-04-03T13:59:31Z</time>
      </trkpt>
      <trkpt lat="46.08708" lon="6.39065">
        <ele>460.13</ele>
        <time>2020-04-03T13:59:32Z</time>
      </trkpt>
      <trkpt lat="46.08707" lon="6.39074">
        <ele>460.13</ele>
        <time>2020-04-03T13:59:33Z</time>
      </trkpt>
      <trkpt lat="46.08707" lon="6.39083">
        <ele>459.65</ele>
        <time>2020-04-03T13:59:34Z</time>
      </trkpt>
      <trkpt lat="46.08706" lon="6.39096">
        <ele>459.17</ele>
        <time>2020-04-03T13:59:35Z</time>
      </trkpt>
      <trkpt lat="46.08706" lon="6.39112">
        <ele>459.17</ele>
        <time>2020-04-03T13:59:36Z</time>
      </trkpt>
      <trkpt lat="46.08706" lon="6.39131">
        <ele>459.17</ele>
        <time>2020-04-03T13:59:37Z</time>
      </trkpt>
      <trkpt lat="46.08705" lon="6.39153">
        <ele>458.69</ele>
        <time>2020-04-03T13:59:38Z</time>
      </trkpt>
      <trkpt lat="46.08692" lon="6.3931">
        <ele>458.21</ele>
        <time>2020-04-03T13:59:45Z</time>
      </trkpt>
      <trkpt lat="46.08688" lon="6.39332">
        <ele>458.21</ele>
        <time>2020-04-03T13:59:46Z</time>
      </trkpt>
      <trkpt lat="46.08664" lon="6.39485">
        <ele>457.72</ele>
        <time>2020-04-03T13:59:53Z</time>
      </trkpt>
      <trkpt lat="46.08662" lon="6.39509">
        <ele>457.24</ele>
        <time>2020-04-03T13:59:54Z</time>
      </trkpt>
      <trkpt lat="46.08663" lon="6.39532">
        <ele>457.24</ele>
        <time>2020-04-03T13:59:55Z</time>
      </trkpt>
      <trkpt lat="46.0868" lon="6.39709">
        <ele>452.92</ele>
        <time>2020-04-03T14:00:03Z</time>
      </trkpt>
      <trkpt lat="46.08677" lon="6.39883">
        <ele>447.15</ele>
        <time>2020-04-03T14:00:12Z</time>
      </trkpt>
      <trkpt lat="46.0866" lon="6.39949">
        <ele>445.71</ele>
        <time>2020-04-03T14:00:16Z</time>
      </trkpt>
      <trkpt lat="46.08653" lon="6.39965">
        <ele>445.71</ele>
        <time>2020-04-03T14:00:17Z</time>
      </trkpt>
      <trkpt lat="46.08645" lon="6.3998">
        <ele>445.71</ele>
        <time>2020-04-03T14:00:18Z</time>
      </trkpt>
      <trkpt lat="46.08638" lon="6.39995">
        <ele>445.23</ele>
        <time>2020-04-03T14:00:19Z</time>
      </trkpt>
      <trkpt lat="46.08631" lon="6.4001">
        <ele>445.23</ele>
        <time>2020-04-03T14:00:20Z</time>
      </trkpt>
      <trkpt lat="46.08621" lon="6.40022">
        <ele>445.23</ele>
        <time>2020-04-03T14:00:21Z</time>
      </trkpt>
      <trkpt lat="46.08611" lon="6.40032">
        <ele>445.23</ele>
        <time>2020-04-03T14:00:22Z</time>
      </trkpt>
      <trkpt lat="46.08533" lon="6.40108">
        <ele>446.19</ele>
        <time>2020-04-03T14:00:31Z</time>
      </trkpt>
      <trkpt lat="46.08466" lon="6.40166">
        <ele>448.59</ele>
        <time>2020-04-03T14:00:42Z</time>
      </trkpt>
      <trkpt lat="46.08445" lon="6.40185">
        <ele>448.59</ele>
        <time>2020-04-03T14:00:45Z</time>
      </trkpt>
      <trkpt lat="46.08437" lon="6.40192">
        <ele>448.59</ele>
        <time>2020-04-03T14:00:46Z</time>
      </trkpt>
      <trkpt lat="46.08424" lon="6.40204">
        <ele>449.55</ele>
        <time>2020-04-03T14:00:48Z</time>
      </trkpt>
      <trkpt lat="46.08417" lon="6.40209">
        <ele>449.55</ele>
        <time>2020-04-03T14:00:49Z</time>
      </trkpt>
      <trkpt lat="46.08412" lon="6.40213">
        <ele>450.03</ele>
        <time>2020-04-03T14:00:50Z</time>
      </trkpt>
      <trkpt lat="46.08408" lon="6.40217">
        <ele>450.52</ele>
        <time>2020-04-03T14:00:51Z</time>
      </trkpt>
      <trkpt lat="46.08403" lon="6.40221">
        <ele>451</ele>
        <time>2020-04-03T14:00:52Z</time>
      </trkpt>
      <trkpt lat="46.08346" lon="6.40274">
        <ele>452.92</ele>
        <time>2020-04-03T14:01:00Z</time>
      </trkpt>
      <trkpt lat="46.08243" lon="6.40365">
        <ele>453.88</ele>
        <time>2020-04-03T14:01:12Z</time>
      </trkpt>
      <trkpt lat="46.08198" lon="6.40403">
        <ele>453.88</ele>
        <time>2020-04-03T14:01:19Z</time>
      </trkpt>
      <trkpt lat="46.0819" lon="6.40395">
        <ele>453.88</ele>
        <time>2020-04-03T14:01:20Z</time>
      </trkpt>
      <trkpt lat="46.08184" lon="6.40387">
        <ele>454.36</ele>
        <time>2020-04-03T14:01:21Z</time>
      </trkpt>
      <trkpt lat="46.08177" lon="6.40377">
        <ele>454.36</ele>
        <time>2020-04-03T14:01:22Z</time>
      </trkpt>
      <trkpt lat="46.08168" lon="6.40368">
        <ele>454.36</ele>
        <time>2020-04-03T14:01:23Z</time>
      </trkpt>
      <trkpt lat="46.08149" lon="6.40337">
        <ele>455.32</ele>
        <time>2020-04-03T14:01:27Z</time>
      </trkpt>
      <trkpt lat="46.08138" lon="6.40322">
        <ele>455.8</ele>
        <time>2020-04-03T14:01:29Z</time>
      </trkpt>
      <trkpt lat="46.08133" lon="6.40315">
        <ele>456.28</ele>
        <time>2020-04-03T14:01:30Z</time>
      </trkpt>
      <trkpt lat="46.08127" lon="6.40308">
        <ele>456.28</ele>
        <time>2020-04-03T14:01:31Z</time>
      </trkpt>
      <trkpt lat="46.08104" lon="6.40276">
        <ele>457.24</ele>
        <time>2020-04-03T14:01:34Z</time>
      </trkpt>
      <trkpt lat="46.08038" lon="6.40215">
        <ele>458.69</ele>
        <time>2020-04-03T14:01:42Z</time>
      </trkpt>
      <trkpt lat="46.08031" lon="6.40209">
        <ele>458.69</ele>
        <time>2020-04-03T14:01:43Z</time>
      </trkpt>
      <trkpt lat="46.08029" lon="6.40207">
        <ele>458.69</ele>
        <time>2020-04-03T14:01:44Z</time>
      </trkpt>
      <trkpt lat="46.08025" lon="6.40187">
        <ele>458.21</ele>
        <time>2020-04-03T14:01:45Z</time>
      </trkpt>
      <trkpt lat="46.0802" lon="6.40183">
        <ele>458.21</ele>
        <time>2020-04-03T14:01:46Z</time>
      </trkpt>
      <trkpt lat="46.0801" lon="6.40189">
        <ele>458.21</ele>
        <time>2020-04-03T14:01:47Z</time>
      </trkpt>
      <trkpt lat="46.08001" lon="6.40188">
        <ele>457.72</ele>
        <time>2020-04-03T14:01:48Z</time>
      </trkpt>
      <trkpt lat="46.07991" lon="6.40186">
        <ele>457.24</ele>
        <time>2020-04-03T14:01:49Z</time>
      </trkpt>
      <trkpt lat="46.07926" lon="6.40185">
        <ele>455.32</ele>
        <time>2020-04-03T14:01:58Z</time>
      </trkpt>
      <trkpt lat="46.07913" lon="6.40185">
        <ele>455.32</ele>
        <time>2020-04-03T14:02:07Z</time>
      </trkpt>
      <trkpt lat="46.07913" lon="6.40185">
        <ele>455.32</ele>
        <time>2020-04-03T14:02:21Z</time>
      </trkpt>
      <trkpt lat="46.0791" lon="6.40186">
        <ele>455.32</ele>
        <time>2020-04-03T14:02:22Z</time>
      </trkpt>
      <trkpt lat="46.07904" lon="6.40187">
        <ele>455.32</ele>
        <time>2020-04-03T14:02:23Z</time>
      </trkpt>
      <trkpt lat="46.07846" lon="6.40189">
        <ele>455.8</ele>
        <time>2020-04-03T14:02:31Z</time>
      </trkpt>
      <trkpt lat="46.07837" lon="6.40189">
        <ele>455.8</ele>
        <time>2020-04-03T14:02:32Z</time>
      </trkpt>
      <trkpt lat="46.07828" lon="6.40188">
        <ele>456.28</ele>
        <time>2020-04-03T14:02:33Z</time>
      </trkpt>
      <trkpt lat="46.07782" lon="6.40185">
        <ele>457.24</ele>
        <time>2020-04-03T14:02:38Z</time>
      </trkpt>
      <trkpt lat="46.0774" lon="6.40183">
        <ele>458.21</ele>
        <time>2020-04-03T14:02:43Z</time>
      </trkpt>
      <trkpt lat="46.07732" lon="6.40183">
        <ele>457.72</ele>
        <time>2020-04-03T14:02:44Z</time>
      </trkpt>
      <trkpt lat="46.07645" lon="6.40181">
        <ele>455.32</ele>
        <time>2020-04-03T14:02:54Z</time>
      </trkpt>
      <trkpt lat="46.07564" lon="6.402">
        <ele>456.28</ele>
        <time>2020-04-03T14:03:03Z</time>
      </trkpt>
      <trkpt lat="46.07555" lon="6.40204">
        <ele>456.76</ele>
        <time>2020-04-03T14:03:04Z</time>
      </trkpt>
      <trkpt lat="46.07456" lon="6.40268">
        <ele>457.24</ele>
        <time>2020-04-03T14:03:15Z</time>
      </trkpt>
      <trkpt lat="46.07435" lon="6.40284">
        <ele>456.28</ele>
        <time>2020-04-03T14:03:18Z</time>
      </trkpt>
      <trkpt lat="46.07429" lon="6.40283">
        <ele>455.8</ele>
        <time>2020-04-03T14:03:19Z</time>
      </trkpt>
      <trkpt lat="46.07419" lon="6.40276">
        <ele>455.32</ele>
        <time>2020-04-03T14:03:20Z</time>
      </trkpt>
      <trkpt lat="46.07412" lon="6.40279">
        <ele>454.84</ele>
        <time>2020-04-03T14:03:21Z</time>
      </trkpt>
      <trkpt lat="46.07404" lon="6.4029">
        <ele>454.84</ele>
        <time>2020-04-03T14:03:22Z</time>
      </trkpt>
      <trkpt lat="46.074" lon="6.40299">
        <ele>454.36</ele>
        <time>2020-04-03T14:03:23Z</time>
      </trkpt>
      <trkpt lat="46.074" lon="6.40299">
        <ele>453.88</ele>
        <time>2020-04-03T14:03:24Z</time>
      </trkpt>
      <trkpt lat="46.07402" lon="6.40332">
        <ele>453.4</ele>
        <time>2020-04-03T14:03:25Z</time>
      </trkpt>
      <trkpt lat="46.07397" lon="6.40345">
        <ele>452.92</ele>
        <time>2020-04-03T14:03:26Z</time>
      </trkpt>
      <trkpt lat="46.0739" lon="6.4036">
        <ele>452.92</ele>
        <time>2020-04-03T14:03:27Z</time>
      </trkpt>
      <trkpt lat="46.07351" lon="6.40443">
        <ele>454.36</ele>
        <time>2020-04-03T14:03:32Z</time>
      </trkpt>
      <trkpt lat="46.07344" lon="6.4046">
        <ele>455.32</ele>
        <time>2020-04-03T14:03:33Z</time>
      </trkpt>
      <trkpt lat="46.07301" lon="6.40559">
        <ele>459.17</ele>
        <time>2020-04-03T14:03:39Z</time>
      </trkpt>
      <trkpt lat="46.07291" lon="6.40593">
        <ele>459.65</ele>
        <time>2020-04-03T14:03:41Z</time>
      </trkpt>
      <trkpt lat="46.07288" lon="6.40609">
        <ele>460.13</ele>
        <time>2020-04-03T14:03:42Z</time>
      </trkpt>
      <trkpt lat="46.07287" lon="6.40628">
        <ele>460.13</ele>
        <time>2020-04-03T14:03:43Z</time>
      </trkpt>
      <trkpt lat="46.07286" lon="6.40646">
        <ele>460.13</ele>
        <time>2020-04-03T14:03:44Z</time>
      </trkpt>
      <trkpt lat="46.07286" lon="6.40665">
        <ele>459.65</ele>
        <time>2020-04-03T14:03:45Z</time>
      </trkpt>
      <trkpt lat="46.07289" lon="6.40683">
        <ele>459.65</ele>
        <time>2020-04-03T14:03:46Z</time>
      </trkpt>
      <trkpt lat="46.07292" lon="6.40702">
        <ele>459.65</ele>
        <time>2020-04-03T14:03:47Z</time>
      </trkpt>
      <trkpt lat="46.07297" lon="6.40718">
        <ele>459.17</ele>
        <time>2020-04-03T14:03:48Z</time>
      </trkpt>
      <trkpt lat="46.07302" lon="6.40736">
        <ele>459.17</ele>
        <time>2020-04-03T14:03:49Z</time>
      </trkpt>
      <trkpt lat="46.07308" lon="6.40754">
        <ele>458.69</ele>
        <time>2020-04-03T14:03:50Z</time>
      </trkpt>
      <trkpt lat="46.07343" lon="6.40829">
        <ele>456.28</ele>
        <time>2020-04-03T14:03:55Z</time>
      </trkpt>
      <trkpt lat="46.07356" lon="6.40847">
        <ele>455.8</ele>
        <time>2020-04-03T14:03:57Z</time>
      </trkpt>
      <trkpt lat="46.0736" lon="6.4086">
        <ele>455.32</ele>
        <time>2020-04-03T14:03:58Z</time>
      </trkpt>
      <trkpt lat="46.07364" lon="6.40874">
        <ele>454.84</ele>
        <time>2020-04-03T14:03:59Z</time>
      </trkpt>
      <trkpt lat="46.07364" lon="6.40889">
        <ele>454.84</ele>
        <time>2020-04-03T14:04:00Z</time>
      </trkpt>
      <trkpt lat="46.07365" lon="6.40907">
        <ele>454.36</ele>
        <time>2020-04-03T14:04:01Z</time>
      </trkpt>
      <trkpt lat="46.07366" lon="6.40928">
        <ele>453.88</ele>
        <time>2020-04-03T14:04:02Z</time>
      </trkpt>
      <trkpt lat="46.07363" lon="6.40948">
        <ele>453.4</ele>
        <time>2020-04-03T14:04:03Z</time>
      </trkpt>
      <trkpt lat="46.0736" lon="6.4097">
        <ele>452.92</ele>
        <time>2020-04-03T14:04:04Z</time>
      </trkpt>
      <trkpt lat="46.07357" lon="6.40992">
        <ele>452.92</ele>
        <time>2020-04-03T14:04:05Z</time>
      </trkpt>
      <trkpt lat="46.07353" lon="6.41014">
        <ele>451.96</ele>
        <time>2020-04-03T14:04:06Z</time>
      </trkpt>
      <trkpt lat="46.07347" lon="6.41036">
        <ele>451.96</ele>
        <time>2020-04-03T14:04:07Z</time>
      </trkpt>
      <trkpt lat="46.0734" lon="6.41058">
        <ele>451.96</ele>
        <time>2020-04-03T14:04:08Z</time>
      </trkpt>
      <trkpt lat="46.07319" lon="6.41126">
        <ele>452.44</ele>
        <time>2020-04-03T14:04:11Z</time>
      </trkpt>
      <trkpt lat="46.07314" lon="6.41149">
        <ele>452.92</ele>
        <time>2020-04-03T14:04:12Z</time>
      </trkpt>
      <trkpt lat="46.07279" lon="6.41421">
        <ele>453.4</ele>
        <time>2020-04-03T14:04:23Z</time>
      </trkpt>
      <trkpt lat="46.07241" lon="6.41727">
        <ele>453.4</ele>
        <time>2020-04-03T14:04:35Z</time>
      </trkpt>
      <trkpt lat="46.07208" lon="6.41886">
        <ele>454.84</ele>
        <time>2020-04-03T14:04:43Z</time>
      </trkpt>
      <trkpt lat="46.07174" lon="6.4201">
        <ele>451.48</ele>
        <time>2020-04-03T14:04:50Z</time>
      </trkpt>
      <trkpt lat="46.07173" lon="6.42019">
        <ele>451</ele>
        <time>2020-04-03T14:04:51Z</time>
      </trkpt>
      <trkpt lat="46.07172" lon="6.42025">
        <ele>450.52</ele>
        <time>2020-04-03T14:04:52Z</time>
      </trkpt>
      <trkpt lat="46.07171" lon="6.42029">
        <ele>450.03</ele>
        <time>2020-04-03T14:04:53Z</time>
      </trkpt>
      <trkpt lat="46.07171" lon="6.42032">
        <ele>449.55</ele>
        <time>2020-04-03T14:04:54Z</time>
      </trkpt>
      <trkpt lat="46.07177" lon="6.42033">
        <ele>449.07</ele>
        <time>2020-04-03T14:04:55Z</time>
      </trkpt>
      <trkpt lat="46.07181" lon="6.42034">
        <ele>448.59</ele>
        <time>2020-04-03T14:04:56Z</time>
      </trkpt>
      <trkpt lat="46.07187" lon="6.42034">
        <ele>448.11</ele>
        <time>2020-04-03T14:04:57Z</time>
      </trkpt>
      <trkpt lat="46.07196" lon="6.42035">
        <ele>447.63</ele>
        <time>2020-04-03T14:04:58Z</time>
      </trkpt>
      <trkpt lat="46.07266" lon="6.42054">
        <ele>447.15</ele>
        <time>2020-04-03T14:05:04Z</time>
      </trkpt>
      <trkpt lat="46.07296" lon="6.42058">
        <ele>447.63</ele>
        <time>2020-04-03T14:05:10Z</time>
      </trkpt>
      <trkpt lat="46.07297" lon="6.42058">
        <ele>447.63</ele>
        <time>2020-04-03T14:05:14Z</time>
      </trkpt>
      <trkpt lat="46.07301" lon="6.42053">
        <ele>448.11</ele>
        <time>2020-04-03T14:05:15Z</time>
      </trkpt>
      <trkpt lat="46.07301" lon="6.42049">
        <ele>448.11</ele>
        <time>2020-04-03T14:05:16Z</time>
      </trkpt>
      <trkpt lat="46.073" lon="6.42045">
        <ele>448.59</ele>
        <time>2020-04-03T14:05:17Z</time>
      </trkpt>
      <trkpt lat="46.073" lon="6.42041">
        <ele>448.59</ele>
        <time>2020-04-03T14:05:18Z</time>
      </trkpt>
      <trkpt lat="46.073" lon="6.42036">
        <ele>449.07</ele>
        <time>2020-04-03T14:05:19Z</time>
      </trkpt>
      <trkpt lat="46.07299" lon="6.42031">
        <ele>449.07</ele>
        <time>2020-04-03T14:05:20Z</time>
      </trkpt>
      <trkpt lat="46.07299" lon="6.42026">
        <ele>449.55</ele>
        <time>2020-04-03T14:05:21Z</time>
      </trkpt>
      <trkpt lat="46.07299" lon="6.4202">
        <ele>449.55</ele>
        <time>2020-04-03T14:05:22Z</time>
      </trkpt>
      <trkpt lat="46.07294" lon="6.41946">
        <ele>451.96</ele>
        <time>2020-04-03T14:05:36Z</time>
      </trkpt>
      <trkpt lat="46.07293" lon="6.41928">
        <ele>452.44</ele>
        <time>2020-04-03T14:05:46Z</time>
      </trkpt>
      <trkpt lat="46.07291" lon="6.41913">
        <ele>453.88</ele>
        <time>2020-04-03T14:05:50Z</time>
      </trkpt>
      <trkpt lat="46.07291" lon="6.4193">
        <ele>454.36</ele>
        <time>2020-04-03T14:05:51Z</time>
      </trkpt>
      <trkpt lat="46.07289" lon="6.41931">
        <ele>454.84</ele>
        <time>2020-04-03T14:05:52Z</time>
      </trkpt>
      <trkpt lat="46.07285" lon="6.41928">
        <ele>456.28</ele>
        <time>2020-04-03T14:06:04Z</time>
      </trkpt>
      <trkpt lat="46.07283" lon="6.41934">
        <ele>453.88</ele>
        <time>2020-04-03T14:45:34Z</time>
      </trkpt>
      <trkpt lat="46.07285" lon="6.41931">
        <ele>452.44</ele>
        <time>2020-04-03T14:45:36Z</time>
      </trkpt>
      <trkpt lat="46.07289" lon="6.4193">
        <ele>452.92</ele>
        <time>2020-04-03T14:45:37Z</time>
      </trkpt>
      <trkpt lat="46.07293" lon="6.4193">
        <ele>452.92</ele>
        <time>2020-04-03T14:45:38Z</time>
      </trkpt>
      <trkpt lat="46.07293" lon="6.41929">
        <ele>452.44</ele>
        <time>2020-04-03T14:45:39Z</time>
      </trkpt>
      <trkpt lat="46.07292" lon="6.41921">
        <ele>451.96</ele>
        <time>2020-04-03T14:45:40Z</time>
      </trkpt>
      <trkpt lat="46.07291" lon="6.4191">
        <ele>451.48</ele>
        <time>2020-04-03T14:45:41Z</time>
      </trkpt>
      <trkpt lat="46.0729" lon="6.41896">
        <ele>451</ele>
        <time>2020-04-03T14:45:42Z</time>
      </trkpt>
      <trkpt lat="46.07289" lon="6.41882">
        <ele>450.52</ele>
        <time>2020-04-03T14:45:43Z</time>
      </trkpt>
      <trkpt lat="46.07288" lon="6.4187">
        <ele>450.52</ele>
        <time>2020-04-03T14:45:44Z</time>
      </trkpt>
      <trkpt lat="46.07287" lon="6.4186">
        <ele>450.52</ele>
        <time>2020-04-03T14:45:45Z</time>
      </trkpt>
      <trkpt lat="46.07286" lon="6.41848">
        <ele>450.03</ele>
        <time>2020-04-03T14:45:46Z</time>
      </trkpt>
      <trkpt lat="46.07287" lon="6.4184">
        <ele>450.03</ele>
        <time>2020-04-03T14:45:47Z</time>
      </trkpt>
      <trkpt lat="46.07288" lon="6.41829">
        <ele>449.55</ele>
        <time>2020-04-03T14:45:48Z</time>
      </trkpt>
      <trkpt lat="46.07293" lon="6.41821">
        <ele>449.07</ele>
        <time>2020-04-03T14:45:49Z</time>
      </trkpt>
      <trkpt lat="46.07297" lon="6.41813">
        <ele>449.07</ele>
        <time>2020-04-03T14:45:50Z</time>
      </trkpt>
      <trkpt lat="46.07308" lon="6.41805">
        <ele>448.59</ele>
        <time>2020-04-03T14:45:51Z</time>
      </trkpt>
      <trkpt lat="46.07318" lon="6.41804">
        <ele>448.11</ele>
        <time>2020-04-03T14:45:52Z</time>
      </trkpt>
      <trkpt lat="46.07327" lon="6.41803">
        <ele>448.11</ele>
        <time>2020-04-03T14:45:53Z</time>
      </trkpt>
      <trkpt lat="46.07335" lon="6.41802">
        <ele>447.63</ele>
        <time>2020-04-03T14:45:54Z</time>
      </trkpt>
      <trkpt lat="46.0734" lon="6.41801">
        <ele>447.63</ele>
        <time>2020-04-03T14:45:55Z</time>
      </trkpt>
      <trkpt lat="46.07343" lon="6.418">
        <ele>448.11</ele>
        <time>2020-04-03T14:45:56Z</time>
      </trkpt>
      <trkpt lat="46.07352" lon="6.41812">
        <ele>448.11</ele>
        <time>2020-04-03T14:45:57Z</time>
      </trkpt>
      <trkpt lat="46.07353" lon="6.41833">
        <ele>449.07</ele>
        <time>2020-04-03T14:46:00Z</time>
      </trkpt>
      <trkpt lat="46.07354" lon="6.41851">
        <ele>449.07</ele>
        <time>2020-04-03T14:46:02Z</time>
      </trkpt>
      <trkpt lat="46.07355" lon="6.4186">
        <ele>449.55</ele>
        <time>2020-04-03T14:46:03Z</time>
      </trkpt>
      <trkpt lat="46.07355" lon="6.41872">
        <ele>449.55</ele>
        <time>2020-04-03T14:46:04Z</time>
      </trkpt>
      <trkpt lat="46.07356" lon="6.41887">
        <ele>449.07</ele>
        <time>2020-04-03T14:46:05Z</time>
      </trkpt>
      <trkpt lat="46.07357" lon="6.41902">
        <ele>449.07</ele>
        <time>2020-04-03T14:46:06Z</time>
      </trkpt>
      <trkpt lat="46.07358" lon="6.41917">
        <ele>449.07</ele>
        <time>2020-04-03T14:46:07Z</time>
      </trkpt>
      <trkpt lat="46.07367" lon="6.42025">
        <ele>451.48</ele>
        <time>2020-04-03T14:46:15Z</time>
      </trkpt>
      <trkpt lat="46.07357" lon="6.42046">
        <ele>451.48</ele>
        <time>2020-04-03T14:46:16Z</time>
      </trkpt>
      <trkpt lat="46.07355" lon="6.42049">
        <ele>451</ele>
        <time>2020-04-03T14:46:17Z</time>
      </trkpt>
      <trkpt lat="46.07349" lon="6.42058">
        <ele>450.52</ele>
        <time>2020-04-03T14:46:18Z</time>
      </trkpt>
      <trkpt lat="46.07335" lon="6.42064">
        <ele>450.52</ele>
        <time>2020-04-03T14:46:19Z</time>
      </trkpt>
      <trkpt lat="46.07325" lon="6.42062">
        <ele>450.52</ele>
        <time>2020-04-03T14:46:20Z</time>
      </trkpt>
      <trkpt lat="46.07314" lon="6.42061">
        <ele>451</ele>
        <time>2020-04-03T14:46:21Z</time>
      </trkpt>
      <trkpt lat="46.0725" lon="6.42052">
        <ele>451.48</ele>
        <time>2020-04-03T14:46:27Z</time>
      </trkpt>
      <trkpt lat="46.07239" lon="6.4205">
        <ele>451</ele>
        <time>2020-04-03T14:46:28Z</time>
      </trkpt>
      <trkpt lat="46.07239" lon="6.42034">
        <ele>451</ele>
        <time>2020-04-03T14:46:29Z</time>
      </trkpt>
      <trkpt lat="46.07238" lon="6.42022">
        <ele>451</ele>
        <time>2020-04-03T14:46:30Z</time>
      </trkpt>
      <trkpt lat="46.07238" lon="6.42007">
        <ele>450.52</ele>
        <time>2020-04-03T14:46:31Z</time>
      </trkpt>
      <trkpt lat="46.07237" lon="6.41988">
        <ele>450.52</ele>
        <time>2020-04-03T14:46:32Z</time>
      </trkpt>
      <trkpt lat="46.07233" lon="6.41852">
        <ele>452.44</ele>
        <time>2020-04-03T14:46:37Z</time>
      </trkpt>
      <trkpt lat="46.07248" lon="6.41688">
        <ele>452.92</ele>
        <time>2020-04-03T14:46:43Z</time>
      </trkpt>
      <trkpt lat="46.07268" lon="6.41516">
        <ele>452.92</ele>
        <time>2020-04-03T14:46:51Z</time>
      </trkpt>
      <trkpt lat="46.07302" lon="6.41235">
        <ele>454.36</ele>
        <time>2020-04-03T14:47:05Z</time>
      </trkpt>
      <trkpt lat="46.07323" lon="6.41113">
        <ele>452.92</ele>
        <time>2020-04-03T14:47:11Z</time>
      </trkpt>
      <trkpt lat="46.07329" lon="6.41093">
        <ele>452.44</ele>
        <time>2020-04-03T14:47:12Z</time>
      </trkpt>
      <trkpt lat="46.07335" lon="6.41074">
        <ele>451.48</ele>
        <time>2020-04-03T14:47:13Z</time>
      </trkpt>
      <trkpt lat="46.07346" lon="6.41037">
        <ele>450.03</ele>
        <time>2020-04-03T14:47:15Z</time>
      </trkpt>
      <trkpt lat="46.07358" lon="6.40983">
        <ele>448.59</ele>
        <time>2020-04-03T14:47:18Z</time>
      </trkpt>
      <trkpt lat="46.07378" lon="6.40888">
        <ele>449.55</ele>
        <time>2020-04-03T14:47:25Z</time>
      </trkpt>
      <trkpt lat="46.07381" lon="6.40876">
        <ele>449.55</ele>
        <time>2020-04-03T14:47:26Z</time>
      </trkpt>
      <trkpt lat="46.07386" lon="6.40866">
        <ele>450.03</ele>
        <time>2020-04-03T14:47:27Z</time>
      </trkpt>
      <trkpt lat="46.07391" lon="6.40857">
        <ele>450.52</ele>
        <time>2020-04-03T14:47:28Z</time>
      </trkpt>
      <trkpt lat="46.07393" lon="6.40849">
        <ele>450.52</ele>
        <time>2020-04-03T14:47:29Z</time>
      </trkpt>
      <trkpt lat="46.07391" lon="6.40837">
        <ele>450.52</ele>
        <time>2020-04-03T14:47:30Z</time>
      </trkpt>
      <trkpt lat="46.07387" lon="6.40826">
        <ele>451</ele>
        <time>2020-04-03T14:47:31Z</time>
      </trkpt>
      <trkpt lat="46.07376" lon="6.4082">
        <ele>451.48</ele>
        <time>2020-04-03T14:47:32Z</time>
      </trkpt>
      <trkpt lat="46.07369" lon="6.40822">
        <ele>451.96</ele>
        <time>2020-04-03T14:47:33Z</time>
      </trkpt>
      <trkpt lat="46.07363" lon="6.40822">
        <ele>451.96</ele>
        <time>2020-04-03T14:47:34Z</time>
      </trkpt>
      <trkpt lat="46.07351" lon="6.40821">
        <ele>451.96</ele>
        <time>2020-04-03T14:47:35Z</time>
      </trkpt>
      <trkpt lat="46.07347" lon="6.40817">
        <ele>451.48</ele>
        <time>2020-04-03T14:47:36Z</time>
      </trkpt>
      <trkpt lat="46.07338" lon="6.40811">
        <ele>451</ele>
        <time>2020-04-03T14:47:37Z</time>
      </trkpt>
      <trkpt lat="46.07329" lon="6.408">
        <ele>450.52</ele>
        <time>2020-04-03T14:47:38Z</time>
      </trkpt>
      <trkpt lat="46.07322" lon="6.40784">
        <ele>450.03</ele>
        <time>2020-04-03T14:47:39Z</time>
      </trkpt>
      <trkpt lat="46.07314" lon="6.40768">
        <ele>450.03</ele>
        <time>2020-04-03T14:47:40Z</time>
      </trkpt>
      <trkpt lat="46.07307" lon="6.40751">
        <ele>449.55</ele>
        <time>2020-04-03T14:47:41Z</time>
      </trkpt>
      <trkpt lat="46.07301" lon="6.40733">
        <ele>449.07</ele>
        <time>2020-04-03T14:47:42Z</time>
      </trkpt>
      <trkpt lat="46.07296" lon="6.40715">
        <ele>448.59</ele>
        <time>2020-04-03T14:47:43Z</time>
      </trkpt>
      <trkpt lat="46.07291" lon="6.40697">
        <ele>448.11</ele>
        <time>2020-04-03T14:47:44Z</time>
      </trkpt>
      <trkpt lat="46.07288" lon="6.40678">
        <ele>447.63</ele>
        <time>2020-04-03T14:47:45Z</time>
      </trkpt>
      <trkpt lat="46.07286" lon="6.40657">
        <ele>447.15</ele>
        <time>2020-04-03T14:47:46Z</time>
      </trkpt>
      <trkpt lat="46.07286" lon="6.40638">
        <ele>446.67</ele>
        <time>2020-04-03T14:47:47Z</time>
      </trkpt>
      <trkpt lat="46.07287" lon="6.40617">
        <ele>446.19</ele>
        <time>2020-04-03T14:47:48Z</time>
      </trkpt>
      <trkpt lat="46.07289" lon="6.40596">
        <ele>445.23</ele>
        <time>2020-04-03T14:47:49Z</time>
      </trkpt>
      <trkpt lat="46.07295" lon="6.40579">
        <ele>444.75</ele>
        <time>2020-04-03T14:47:50Z</time>
      </trkpt>
      <trkpt lat="46.07306" lon="6.40545">
        <ele>443.79</ele>
        <time>2020-04-03T14:47:52Z</time>
      </trkpt>
      <trkpt lat="46.07336" lon="6.40477">
        <ele>443.79</ele>
        <time>2020-04-03T14:47:56Z</time>
      </trkpt>
      <trkpt lat="46.07344" lon="6.4046">
        <ele>443.79</ele>
        <time>2020-04-03T14:47:57Z</time>
      </trkpt>
      <trkpt lat="46.07386" lon="6.40368">
        <ele>444.27</ele>
        <time>2020-04-03T14:48:03Z</time>
      </trkpt>
      <trkpt lat="46.07391" lon="6.40356">
        <ele>444.27</ele>
        <time>2020-04-03T14:48:04Z</time>
      </trkpt>
      <trkpt lat="46.07397" lon="6.40344">
        <ele>444.75</ele>
        <time>2020-04-03T14:48:05Z</time>
      </trkpt>
      <trkpt lat="46.07417" lon="6.40329">
        <ele>444.75</ele>
        <time>2020-04-03T14:48:07Z</time>
      </trkpt>
      <trkpt lat="46.07421" lon="6.40327">
        <ele>445.23</ele>
        <time>2020-04-03T14:48:08Z</time>
      </trkpt>
      <trkpt lat="46.07427" lon="6.40322">
        <ele>445.23</ele>
        <time>2020-04-03T14:48:09Z</time>
      </trkpt>
      <trkpt lat="46.07434" lon="6.40313">
        <ele>445.71</ele>
        <time>2020-04-03T14:48:10Z</time>
      </trkpt>
      <trkpt lat="46.07436" lon="6.40299">
        <ele>445.71</ele>
        <time>2020-04-03T14:48:11Z</time>
      </trkpt>
      <trkpt lat="46.07434" lon="6.40291">
        <ele>445.71</ele>
        <time>2020-04-03T14:48:12Z</time>
      </trkpt>
      <trkpt lat="46.07427" lon="6.40282">
        <ele>445.71</ele>
        <time>2020-04-03T14:48:13Z</time>
      </trkpt>
      <trkpt lat="46.0742" lon="6.40276">
        <ele>446.19</ele>
        <time>2020-04-03T14:48:14Z</time>
      </trkpt>
      <trkpt lat="46.07419" lon="6.40276">
        <ele>446.19</ele>
        <time>2020-04-03T14:48:15Z</time>
      </trkpt>
      <trkpt lat="46.07398" lon="6.40261">
        <ele>446.19</ele>
        <time>2020-04-03T14:48:16Z</time>
      </trkpt>
      <trkpt lat="46.07392" lon="6.40246">
        <ele>446.67</ele>
        <time>2020-04-03T14:48:17Z</time>
      </trkpt>
      <trkpt lat="46.07338" lon="6.40106">
        <ele>448.59</ele>
        <time>2020-04-03T14:48:26Z</time>
      </trkpt>
      <trkpt lat="46.07287" lon="6.39914">
        <ele>451.48</ele>
        <time>2020-04-03T14:48:37Z</time>
      </trkpt>
      <trkpt lat="46.07275" lon="6.39842">
        <ele>451.96</ele>
        <time>2020-04-03T14:48:41Z</time>
      </trkpt>
      <trkpt lat="46.07273" lon="6.39658">
        <ele>452.92</ele>
        <time>2020-04-03T14:48:51Z</time>
      </trkpt>
      <trkpt lat="46.07278" lon="6.39613">
        <ele>454.36</ele>
        <time>2020-04-03T14:48:54Z</time>
      </trkpt>
      <trkpt lat="46.0728" lon="6.39598">
        <ele>454.36</ele>
        <time>2020-04-03T14:48:55Z</time>
      </trkpt>
      <trkpt lat="46.07287" lon="6.39585">
        <ele>454.84</ele>
        <time>2020-04-03T14:48:56Z</time>
      </trkpt>
      <trkpt lat="46.07299" lon="6.39563">
        <ele>454.84</ele>
        <time>2020-04-03T14:48:58Z</time>
      </trkpt>
      <trkpt lat="46.07303" lon="6.39548">
        <ele>455.32</ele>
        <time>2020-04-03T14:48:59Z</time>
      </trkpt>
      <trkpt lat="46.07305" lon="6.39536">
        <ele>455.32</ele>
        <time>2020-04-03T14:49:00Z</time>
      </trkpt>
      <trkpt lat="46.07304" lon="6.39519">
        <ele>455.32</ele>
        <time>2020-04-03T14:49:01Z</time>
      </trkpt>
      <trkpt lat="46.07308" lon="6.39504">
        <ele>455.8</ele>
        <time>2020-04-03T14:49:02Z</time>
      </trkpt>
      <trkpt lat="46.07312" lon="6.39484">
        <ele>455.8</ele>
        <time>2020-04-03T14:49:03Z</time>
      </trkpt>
      <trkpt lat="46.07313" lon="6.39466">
        <ele>455.8</ele>
        <time>2020-04-03T14:49:04Z</time>
      </trkpt>
      <trkpt lat="46.07314" lon="6.39445">
        <ele>455.32</ele>
        <time>2020-04-03T14:49:05Z</time>
      </trkpt>
      <trkpt lat="46.07313" lon="6.39424">
        <ele>454.84</ele>
        <time>2020-04-03T14:49:06Z</time>
      </trkpt>
      <trkpt lat="46.07311" lon="6.39403">
        <ele>454.36</ele>
        <time>2020-04-03T14:49:07Z</time>
      </trkpt>
      <trkpt lat="46.07293" lon="6.39117">
        <ele>451.96</ele>
        <time>2020-04-03T14:49:21Z</time>
      </trkpt>
      <trkpt lat="46.07282" lon="6.38952">
        <ele>455.8</ele>
        <time>2020-04-03T14:49:29Z</time>
      </trkpt>
      <trkpt lat="46.07269" lon="6.38705">
        <ele>461.57</ele>
        <time>2020-04-03T14:49:40Z</time>
      </trkpt>
      <trkpt lat="46.07271" lon="6.38544">
        <ele>464.93</ele>
        <time>2020-04-03T14:49:46Z</time>
      </trkpt>
      <trkpt lat="46.0727" lon="6.38518">
        <ele>465.42</ele>
        <time>2020-04-03T14:49:47Z</time>
      </trkpt>
      <trkpt lat="46.07266" lon="6.38491">
        <ele>466.38</ele>
        <time>2020-04-03T14:49:48Z</time>
      </trkpt>
      <trkpt lat="46.07261" lon="6.38465">
        <ele>466.86</ele>
        <time>2020-04-03T14:49:49Z</time>
      </trkpt>
      <trkpt lat="46.07254" lon="6.3844">
        <ele>467.82</ele>
        <time>2020-04-03T14:49:50Z</time>
      </trkpt>
      <trkpt lat="46.07247" lon="6.38415">
        <ele>468.3</ele>
        <time>2020-04-03T14:49:51Z</time>
      </trkpt>
      <trkpt lat="46.07212" lon="6.38318">
        <ele>471.18</ele>
        <time>2020-04-03T14:49:55Z</time>
      </trkpt>
      <trkpt lat="46.07205" lon="6.38293">
        <ele>471.18</ele>
        <time>2020-04-03T14:49:56Z</time>
      </trkpt>
      <trkpt lat="46.07199" lon="6.38266">
        <ele>471.18</ele>
        <time>2020-04-03T14:49:57Z</time>
      </trkpt>
      <trkpt lat="46.07199" lon="6.38266">
        <ele>471.18</ele>
        <time>2020-04-03T14:49:58Z</time>
      </trkpt>
      <trkpt lat="46.07193" lon="6.38211">
        <ele>470.7</ele>
        <time>2020-04-03T14:49:59Z</time>
      </trkpt>
      <trkpt lat="46.0719" lon="6.38184">
        <ele>470.22</ele>
        <time>2020-04-03T14:50:00Z</time>
      </trkpt>
      <trkpt lat="46.07191" lon="6.38157">
        <ele>469.74</ele>
        <time>2020-04-03T14:50:01Z</time>
      </trkpt>
      <trkpt lat="46.07193" lon="6.38131">
        <ele>468.78</ele>
        <time>2020-04-03T14:50:02Z</time>
      </trkpt>
      <trkpt lat="46.07197" lon="6.38105">
        <ele>467.82</ele>
        <time>2020-04-03T14:50:03Z</time>
      </trkpt>
      <trkpt lat="46.07214" lon="6.37986">
        <ele>466.86</ele>
        <time>2020-04-03T14:50:09Z</time>
      </trkpt>
      <trkpt lat="46.07212" lon="6.37792">
        <ele>467.34</ele>
        <time>2020-04-03T14:50:17Z</time>
      </trkpt>
      <trkpt lat="46.07211" lon="6.37762">
        <ele>467.34</ele>
        <time>2020-04-03T14:50:19Z</time>
      </trkpt>
      <trkpt lat="46.0722" lon="6.37722">
        <ele>467.82</ele>
        <time>2020-04-03T14:50:22Z</time>
      </trkpt>
      <trkpt lat="46.07226" lon="6.37706">
        <ele>467.82</ele>
        <time>2020-04-03T14:50:23Z</time>
      </trkpt>
      <trkpt lat="46.07223" lon="6.37694">
        <ele>467.82</ele>
        <time>2020-04-03T14:50:24Z</time>
      </trkpt>
      <trkpt lat="46.07216" lon="6.37679">
        <ele>468.3</ele>
        <time>2020-04-03T14:50:25Z</time>
      </trkpt>
      <trkpt lat="46.07213" lon="6.37668">
        <ele>468.3</ele>
        <time>2020-04-03T14:50:26Z</time>
      </trkpt>
      <trkpt lat="46.07209" lon="6.37652">
        <ele>468.3</ele>
        <time>2020-04-03T14:50:27Z</time>
      </trkpt>
      <trkpt lat="46.0719" lon="6.37453">
        <ele>467.34</ele>
        <time>2020-04-03T14:50:36Z</time>
      </trkpt>
      <trkpt lat="46.07167" lon="6.37091">
        <ele>466.86</ele>
        <time>2020-04-03T14:50:50Z</time>
      </trkpt>
      <trkpt lat="46.07149" lon="6.36798">
        <ele>465.9</ele>
        <time>2020-04-03T14:51:01Z</time>
      </trkpt>
      <trkpt lat="46.07136" lon="6.36579">
        <ele>465.9</ele>
        <time>2020-04-03T14:51:11Z</time>
      </trkpt>
      <trkpt lat="46.07135" lon="6.36565">
        <ele>465.9</ele>
        <time>2020-04-03T14:51:12Z</time>
      </trkpt>
      <trkpt lat="46.07135" lon="6.36553">
        <ele>465.9</ele>
        <time>2020-04-03T14:51:13Z</time>
      </trkpt>
      <trkpt lat="46.07134" lon="6.36543">
        <ele>465.9</ele>
        <time>2020-04-03T14:51:14Z</time>
      </trkpt>
      <trkpt lat="46.07134" lon="6.36534">
        <ele>465.42</ele>
        <time>2020-04-03T14:51:15Z</time>
      </trkpt>
      <trkpt lat="46.07134" lon="6.36529">
        <ele>465.42</ele>
        <time>2020-04-03T14:51:16Z</time>
      </trkpt>
      <trkpt lat="46.07151" lon="6.36513">
        <ele>465.42</ele>
        <time>2020-04-03T14:51:17Z</time>
      </trkpt>
      <trkpt lat="46.0715" lon="6.36502">
        <ele>464.93</ele>
        <time>2020-04-03T14:51:18Z</time>
      </trkpt>
      <trkpt lat="46.07145" lon="6.36485">
        <ele>464.45</ele>
        <time>2020-04-03T14:51:19Z</time>
      </trkpt>
      <trkpt lat="46.07143" lon="6.36482">
        <ele>464.45</ele>
        <time>2020-04-03T14:51:20Z</time>
      </trkpt>
      <trkpt lat="46.07125" lon="6.3647">
        <ele>464.45</ele>
        <time>2020-04-03T14:51:21Z</time>
      </trkpt>
      <trkpt lat="46.07124" lon="6.36454">
        <ele>464.45</ele>
        <time>2020-04-03T14:51:22Z</time>
      </trkpt>
      <trkpt lat="46.07123" lon="6.36436">
        <ele>464.45</ele>
        <time>2020-04-03T14:51:23Z</time>
      </trkpt>
      <trkpt lat="46.07119" lon="6.36362">
        <ele>463.97</ele>
        <time>2020-04-03T14:51:26Z</time>
      </trkpt>
      <trkpt lat="46.07106" lon="6.36134">
        <ele>463.97</ele>
        <time>2020-04-03T14:51:34Z</time>
      </trkpt>
      <trkpt lat="46.07089" lon="6.35804">
        <ele>460.61</ele>
        <time>2020-04-03T14:51:47Z</time>
      </trkpt>
      <trkpt lat="46.07066" lon="6.35453">
        <ele>460.13</ele>
        <time>2020-04-03T14:51:59Z</time>
      </trkpt>
      <trkpt lat="46.07037" lon="6.35005">
        <ele>459.65</ele>
        <time>2020-04-03T14:52:13Z</time>
      </trkpt>
      <trkpt lat="46.07023" lon="6.34783">
        <ele>460.13</ele>
        <time>2020-04-03T14:52:22Z</time>
      </trkpt>
      <trkpt lat="46.0702" lon="6.34732">
        <ele>461.09</ele>
        <time>2020-04-03T14:52:25Z</time>
      </trkpt>
      <trkpt lat="46.07019" lon="6.34717">
        <ele>461.57</ele>
        <time>2020-04-03T14:52:26Z</time>
      </trkpt>
      <trkpt lat="46.07019" lon="6.34703">
        <ele>462.05</ele>
        <time>2020-04-03T14:52:27Z</time>
      </trkpt>
      <trkpt lat="46.07029" lon="6.34679">
        <ele>462.05</ele>
        <time>2020-04-03T14:52:28Z</time>
      </trkpt>
      <trkpt lat="46.07029" lon="6.34679">
        <ele>462.05</ele>
        <time>2020-04-03T14:52:29Z</time>
      </trkpt>
      <trkpt lat="46.07032" lon="6.34669">
        <ele>462.05</ele>
        <time>2020-04-03T14:52:30Z</time>
      </trkpt>
      <trkpt lat="46.07028" lon="6.34653">
        <ele>462.05</ele>
        <time>2020-04-03T14:52:31Z</time>
      </trkpt>
      <trkpt lat="46.07025" lon="6.34647">
        <ele>462.05</ele>
        <time>2020-04-03T14:52:32Z</time>
      </trkpt>
      <trkpt lat="46.07014" lon="6.34625">
        <ele>462.05</ele>
        <time>2020-04-03T14:52:33Z</time>
      </trkpt>
      <trkpt lat="46.07012" lon="6.34605">
        <ele>462.05</ele>
        <time>2020-04-03T14:52:34Z</time>
      </trkpt>
      <trkpt lat="46.07011" lon="6.34583">
        <ele>462.05</ele>
        <time>2020-04-03T14:52:35Z</time>
      </trkpt>
      <trkpt lat="46.07009" lon="6.34559">
        <ele>462.05</ele>
        <time>2020-04-03T14:52:36Z</time>
      </trkpt>
      <trkpt lat="46.0699" lon="6.34261">
        <ele>464.45</ele>
        <time>2020-04-03T14:52:47Z</time>
      </trkpt>
      <trkpt lat="46.06972" lon="6.3396">
        <ele>466.86</ele>
        <time>2020-04-03T14:52:58Z</time>
      </trkpt>
      <trkpt lat="46.06953" lon="6.33697">
        <ele>467.82</ele>
        <time>2020-04-03T14:53:08Z</time>
      </trkpt>
      <trkpt lat="46.06951" lon="6.33594">
        <ele>468.78</ele>
        <time>2020-04-03T14:53:12Z</time>
      </trkpt>
      <trkpt lat="46.06954" lon="6.33569">
        <ele>469.26</ele>
        <time>2020-04-03T14:53:13Z</time>
      </trkpt>
      <trkpt lat="46.0696" lon="6.33546">
        <ele>469.74</ele>
        <time>2020-04-03T14:53:14Z</time>
      </trkpt>
      <trkpt lat="46.06967" lon="6.33521">
        <ele>470.22</ele>
        <time>2020-04-03T14:53:15Z</time>
      </trkpt>
      <trkpt lat="46.06978" lon="6.33503">
        <ele>471.18</ele>
        <time>2020-04-03T14:53:16Z</time>
      </trkpt>
      <trkpt lat="46.06991" lon="6.33484">
        <ele>471.66</ele>
        <time>2020-04-03T14:53:17Z</time>
      </trkpt>
      <trkpt lat="46.07003" lon="6.33465">
        <ele>471.66</ele>
        <time>2020-04-03T14:53:18Z</time>
      </trkpt>
      <trkpt lat="46.07099" lon="6.33305">
        <ele>473.11</ele>
        <time>2020-04-03T14:53:26Z</time>
      </trkpt>
      <trkpt lat="46.07108" lon="6.3328">
        <ele>473.11</ele>
        <time>2020-04-03T14:53:27Z</time>
      </trkpt>
      <trkpt lat="46.07143" lon="6.33106">
        <ele>475.99</ele>
        <time>2020-04-03T14:53:34Z</time>
      </trkpt>
      <trkpt lat="46.07144" lon="6.33079">
        <ele>476.95</ele>
        <time>2020-04-03T14:53:35Z</time>
      </trkpt>
      <trkpt lat="46.07142" lon="6.33052">
        <ele>477.91</ele>
        <time>2020-04-03T14:53:36Z</time>
      </trkpt>
      <trkpt lat="46.07123" lon="6.32813">
        <ele>488.49</ele>
        <time>2020-04-03T14:53:46Z</time>
      </trkpt>
      <trkpt lat="46.07123" lon="6.32799">
        <ele>489.45</ele>
        <time>2020-04-03T14:53:47Z</time>
      </trkpt>
      <trkpt lat="46.07123" lon="6.32785">
        <ele>489.93</ele>
        <time>2020-04-03T14:53:48Z</time>
      </trkpt>
      <trkpt lat="46.07134" lon="6.32777">
        <ele>490.41</ele>
        <time>2020-04-03T14:53:49Z</time>
      </trkpt>
      <trkpt lat="46.07141" lon="6.32759">
        <ele>490.89</ele>
        <time>2020-04-03T14:53:50Z</time>
      </trkpt>
      <trkpt lat="46.07152" lon="6.32752">
        <ele>491.37</ele>
        <time>2020-04-03T14:53:51Z</time>
      </trkpt>
      <trkpt lat="46.07152" lon="6.32752">
        <ele>490.89</ele>
        <time>2020-04-03T14:53:52Z</time>
      </trkpt>
      <trkpt lat="46.07174" lon="6.32728">
        <ele>490.41</ele>
        <time>2020-04-03T14:53:53Z</time>
      </trkpt>
      <trkpt lat="46.07184" lon="6.32713">
        <ele>489.45</ele>
        <time>2020-04-03T14:53:54Z</time>
      </trkpt>
      <trkpt lat="46.07221" lon="6.32657">
        <ele>486.08</ele>
        <time>2020-04-03T14:53:59Z</time>
      </trkpt>
      <trkpt lat="46.07226" lon="6.3265">
        <ele>486.08</ele>
        <time>2020-04-03T14:54:00Z</time>
      </trkpt>
      <trkpt lat="46.07235" lon="6.32646">
        <ele>485.6</ele>
        <time>2020-04-03T14:54:01Z</time>
      </trkpt>
      <trkpt lat="46.07234" lon="6.32637">
        <ele>484.64</ele>
        <time>2020-04-03T14:54:02Z</time>
      </trkpt>
      <trkpt lat="46.07224" lon="6.32634">
        <ele>484.16</ele>
        <time>2020-04-03T14:54:03Z</time>
      </trkpt>
      <trkpt lat="46.07221" lon="6.32629">
        <ele>483.68</ele>
        <time>2020-04-03T14:54:04Z</time>
      </trkpt>
      <trkpt lat="46.07215" lon="6.3262">
        <ele>483.68</ele>
        <time>2020-04-03T14:54:05Z</time>
      </trkpt>
      <trkpt lat="46.07208" lon="6.32609">
        <ele>483.68</ele>
        <time>2020-04-03T14:54:06Z</time>
      </trkpt>
      <trkpt lat="46.07202" lon="6.32596">
        <ele>484.64</ele>
        <time>2020-04-03T14:54:07Z</time>
      </trkpt>
      <trkpt lat="46.07196" lon="6.32582">
        <ele>485.6</ele>
        <time>2020-04-03T14:54:08Z</time>
      </trkpt>
      <trkpt lat="46.07194" lon="6.32564">
        <ele>487.05</ele>
        <time>2020-04-03T14:54:09Z</time>
      </trkpt>
      <trkpt lat="46.07192" lon="6.32547">
        <ele>488.01</ele>
        <time>2020-04-03T14:54:10Z</time>
      </trkpt>
      <trkpt lat="46.0719" lon="6.32533">
        <ele>488.97</ele>
        <time>2020-04-03T14:54:11Z</time>
      </trkpt>
      <trkpt lat="46.07189" lon="6.32522">
        <ele>489.93</ele>
        <time>2020-04-03T14:54:12Z</time>
      </trkpt>
      <trkpt lat="46.07187" lon="6.32513">
        <ele>490.41</ele>
        <time>2020-04-03T14:54:13Z</time>
      </trkpt>
      <trkpt lat="46.07185" lon="6.32508">
        <ele>490.89</ele>
        <time>2020-04-03T14:54:14Z</time>
      </trkpt>
      <trkpt lat="46.07174" lon="6.32508">
        <ele>491.85</ele>
        <time>2020-04-03T14:54:15Z</time>
      </trkpt>
      <trkpt lat="46.07172" lon="6.32515">
        <ele>492.81</ele>
        <time>2020-04-03T14:54:16Z</time>
      </trkpt>
      <trkpt lat="46.07168" lon="6.32524">
        <ele>492.81</ele>
        <time>2020-04-03T14:54:17Z</time>
      </trkpt>
      <trkpt lat="46.07164" lon="6.32534">
        <ele>493.77</ele>
        <time>2020-04-03T14:54:18Z</time>
      </trkpt>
      <trkpt lat="46.07158" lon="6.3255">
        <ele>498.58</ele>
        <time>2020-04-03T14:54:21Z</time>
      </trkpt>
      <trkpt lat="46.0715" lon="6.32558">
        <ele>500.02</ele>
        <time>2020-04-03T14:54:22Z</time>
      </trkpt>
      <trkpt lat="46.07148" lon="6.32557">
        <ele>500.98</ele>
        <time>2020-04-03T14:54:23Z</time>
      </trkpt>
      <trkpt lat="46.07148" lon="6.32557">
        <ele>501.95</ele>
        <time>2020-04-03T14:54:35Z</time>
      </trkpt>
      <trkpt lat="46.07159" lon="6.32577">
        <ele>501.95</ele>
        <time>2020-04-03T15:28:20Z</time>
      </trkpt>
      <trkpt lat="46.07148" lon="6.32557">
        <ele>495.22</ele>
        <time>2020-04-03T15:28:34Z</time>
      </trkpt>
      <trkpt lat="46.07157" lon="6.32553">
        <ele>495.22</ele>
        <time>2020-04-03T15:28:35Z</time>
      </trkpt>
      <trkpt lat="46.07154" lon="6.3256">
        <ele>495.7</ele>
        <time>2020-04-03T15:28:36Z</time>
      </trkpt>
      <trkpt lat="46.0715" lon="6.32587">
        <ele>496.18</ele>
        <time>2020-04-03T15:28:38Z</time>
      </trkpt>
      <trkpt lat="46.07146" lon="6.32597">
        <ele>496.66</ele>
        <time>2020-04-03T15:28:39Z</time>
      </trkpt>
      <trkpt lat="46.07138" lon="6.32613">
        <ele>497.14</ele>
        <time>2020-04-03T15:28:41Z</time>
      </trkpt>
      <trkpt lat="46.0713" lon="6.32602">
        <ele>497.14</ele>
        <time>2020-04-03T15:28:42Z</time>
      </trkpt>
      <trkpt lat="46.07135" lon="6.32627">
        <ele>497.14</ele>
        <time>2020-04-03T15:28:43Z</time>
      </trkpt>
      <trkpt lat="46.0713" lon="6.32649">
        <ele>496.66</ele>
        <time>2020-04-03T15:28:44Z</time>
      </trkpt>
      <trkpt lat="46.0713" lon="6.32655">
        <ele>496.66</ele>
        <time>2020-04-03T15:28:45Z</time>
      </trkpt>
      <trkpt lat="46.07132" lon="6.32668">
        <ele>496.18</ele>
        <time>2020-04-03T15:28:46Z</time>
      </trkpt>
      <trkpt lat="46.07133" lon="6.32681">
        <ele>495.22</ele>
        <time>2020-04-03T15:28:47Z</time>
      </trkpt>
      <trkpt lat="46.07134" lon="6.32692">
        <ele>494.26</ele>
        <time>2020-04-03T15:28:48Z</time>
      </trkpt>
      <trkpt lat="46.0714" lon="6.32699">
        <ele>493.77</ele>
        <time>2020-04-03T15:28:49Z</time>
      </trkpt>
      <trkpt lat="46.07147" lon="6.32705">
        <ele>492.81</ele>
        <time>2020-04-03T15:28:50Z</time>
      </trkpt>
      <trkpt lat="46.07153" lon="6.32712">
        <ele>492.33</ele>
        <time>2020-04-03T15:28:51Z</time>
      </trkpt>
      <trkpt lat="46.07164" lon="6.32706">
        <ele>491.37</ele>
        <time>2020-04-03T15:28:52Z</time>
      </trkpt>
      <trkpt lat="46.07171" lon="6.327">
        <ele>489.93</ele>
        <time>2020-04-03T15:28:53Z</time>
      </trkpt>
      <trkpt lat="46.07179" lon="6.32692">
        <ele>488.97</ele>
        <time>2020-04-03T15:28:54Z</time>
      </trkpt>
      <trkpt lat="46.07186" lon="6.3268">
        <ele>488.01</ele>
        <time>2020-04-03T15:28:55Z</time>
      </trkpt>
      <trkpt lat="46.07193" lon="6.32667">
        <ele>487.53</ele>
        <time>2020-04-03T15:28:56Z</time>
      </trkpt>
      <trkpt lat="46.07199" lon="6.32657">
        <ele>486.56</ele>
        <time>2020-04-03T15:28:57Z</time>
      </trkpt>
      <trkpt lat="46.07207" lon="6.32643">
        <ele>486.08</ele>
        <time>2020-04-03T15:28:58Z</time>
      </trkpt>
      <trkpt lat="46.07207" lon="6.32638">
        <ele>486.08</ele>
        <time>2020-04-03T15:28:59Z</time>
      </trkpt>
      <trkpt lat="46.07208" lon="6.3263">
        <ele>485.6</ele>
        <time>2020-04-03T15:29:00Z</time>
      </trkpt>
      <trkpt lat="46.07208" lon="6.32624">
        <ele>485.6</ele>
        <time>2020-04-03T15:29:01Z</time>
      </trkpt>
      <trkpt lat="46.07208" lon="6.3262">
        <ele>485.6</ele>
        <time>2020-04-03T15:29:02Z</time>
      </trkpt>
      <trkpt lat="46.07213" lon="6.32618">
        <ele>485.12</ele>
        <time>2020-04-03T15:29:03Z</time>
      </trkpt>
      <trkpt lat="46.07216" lon="6.32622">
        <ele>485.12</ele>
        <time>2020-04-03T15:29:04Z</time>
      </trkpt>
      <trkpt lat="46.07219" lon="6.32627">
        <ele>484.64</ele>
        <time>2020-04-03T15:29:05Z</time>
      </trkpt>
      <trkpt lat="46.07224" lon="6.32634">
        <ele>484.16</ele>
        <time>2020-04-03T15:29:06Z</time>
      </trkpt>
      <trkpt lat="46.07225" lon="6.32643">
        <ele>484.16</ele>
        <time>2020-04-03T15:29:07Z</time>
      </trkpt>
      <trkpt lat="46.0722" lon="6.32658">
        <ele>483.68</ele>
        <time>2020-04-03T15:29:08Z</time>
      </trkpt>
      <trkpt lat="46.07214" lon="6.32667">
        <ele>484.16</ele>
        <time>2020-04-03T15:29:09Z</time>
      </trkpt>
      <trkpt lat="46.07206" lon="6.32678">
        <ele>484.16</ele>
        <time>2020-04-03T15:29:10Z</time>
      </trkpt>
      <trkpt lat="46.07164" lon="6.32741">
        <ele>486.08</ele>
        <time>2020-04-03T15:29:15Z</time>
      </trkpt>
      <trkpt lat="46.07157" lon="6.32748">
        <ele>486.56</ele>
        <time>2020-04-03T15:29:16Z</time>
      </trkpt>
      <trkpt lat="46.07147" lon="6.32757">
        <ele>487.05</ele>
        <time>2020-04-03T15:29:17Z</time>
      </trkpt>
      <trkpt lat="46.07136" lon="6.3275">
        <ele>488.01</ele>
        <time>2020-04-03T15:29:18Z</time>
      </trkpt>
      <trkpt lat="46.07134" lon="6.32749">
        <ele>488.49</ele>
        <time>2020-04-03T15:29:19Z</time>
      </trkpt>
      <trkpt lat="46.07125" lon="6.32738">
        <ele>489.45</ele>
        <time>2020-04-03T15:29:20Z</time>
      </trkpt>
      <trkpt lat="46.07123" lon="6.32724">
        <ele>489.93</ele>
        <time>2020-04-03T15:29:21Z</time>
      </trkpt>
      <trkpt lat="46.07121" lon="6.32706">
        <ele>490.41</ele>
        <time>2020-04-03T15:29:22Z</time>
      </trkpt>
      <trkpt lat="46.07119" lon="6.32683">
        <ele>490.89</ele>
        <time>2020-04-03T15:29:23Z</time>
      </trkpt>
      <trkpt lat="46.07102" lon="6.32524">
        <ele>496.18</ele>
        <time>2020-04-03T15:29:28Z</time>
      </trkpt>
      <trkpt lat="46.07045" lon="6.32298">
        <ele>505.31</ele>
        <time>2020-04-03T15:29:36Z</time>
      </trkpt>
      <trkpt lat="46.07025" lon="6.32178">
        <ele>510.12</ele>
        <time>2020-04-03T15:29:41Z</time>
      </trkpt>
      <trkpt lat="46.07025" lon="6.32159">
        <ele>511.08</ele>
        <time>2020-04-03T15:29:42Z</time>
      </trkpt>
      <trkpt lat="46.07026" lon="6.32141">
        <ele>511.56</ele>
        <time>2020-04-03T15:29:43Z</time>
      </trkpt>
      <trkpt lat="46.07027" lon="6.32116">
        <ele>512.04</ele>
        <time>2020-04-03T15:29:45Z</time>
      </trkpt>
      <trkpt lat="46.07027" lon="6.32107">
        <ele>512.52</ele>
        <time>2020-04-03T15:29:46Z</time>
      </trkpt>
      <trkpt lat="46.0702" lon="6.321">
        <ele>513.48</ele>
        <time>2020-04-03T15:29:47Z</time>
      </trkpt>
      <trkpt lat="46.07014" lon="6.32098">
        <ele>514.44</ele>
        <time>2020-04-03T15:29:48Z</time>
      </trkpt>
      <trkpt lat="46.07005" lon="6.32096">
        <ele>515.4</ele>
        <time>2020-04-03T15:29:49Z</time>
      </trkpt>
      <trkpt lat="46.06997" lon="6.32093">
        <ele>515.88</ele>
        <time>2020-04-03T15:29:50Z</time>
      </trkpt>
      <trkpt lat="46.06989" lon="6.3209">
        <ele>514.92</ele>
        <time>2020-04-03T15:29:51Z</time>
      </trkpt>
      <trkpt lat="46.0698" lon="6.32081">
        <ele>514.92</ele>
        <time>2020-04-03T15:29:52Z</time>
      </trkpt>
      <trkpt lat="46.06975" lon="6.32067">
        <ele>515.4</ele>
        <time>2020-04-03T15:29:53Z</time>
      </trkpt>
      <trkpt lat="46.0697" lon="6.32051">
        <ele>515.4</ele>
        <time>2020-04-03T15:29:54Z</time>
      </trkpt>
      <trkpt lat="46.06956" lon="6.32001">
        <ele>516.37</ele>
        <time>2020-04-03T15:29:57Z</time>
      </trkpt>
      <trkpt lat="46.06934" lon="6.3193">
        <ele>517.33</ele>
        <time>2020-04-03T15:30:02Z</time>
      </trkpt>
      <trkpt lat="46.06908" lon="6.31848">
        <ele>518.29</ele>
        <time>2020-04-03T15:30:08Z</time>
      </trkpt>
      <trkpt lat="46.06904" lon="6.31836">
        <ele>518.77</ele>
        <time>2020-04-03T15:30:09Z</time>
      </trkpt>
      <trkpt lat="46.06892" lon="6.31796">
        <ele>518.77</ele>
        <time>2020-04-03T15:30:12Z</time>
      </trkpt>
      <trkpt lat="46.06832" lon="6.31602">
        <ele>527.42</ele>
        <time>2020-04-03T15:30:25Z</time>
      </trkpt>
      <trkpt lat="46.06808" lon="6.31529">
        <ele>530.79</ele>
        <time>2020-04-03T15:30:30Z</time>
      </trkpt>
      <trkpt lat="46.06773" lon="6.31426">
        <ele>534.63</ele>
        <time>2020-04-03T15:30:39Z</time>
      </trkpt>
      <trkpt lat="46.06764" lon="6.31408">
        <ele>535.11</ele>
        <time>2020-04-03T15:30:41Z</time>
      </trkpt>
      <trkpt lat="46.0676" lon="6.31401">
        <ele>535.59</ele>
        <time>2020-04-03T15:30:42Z</time>
      </trkpt>
      <trkpt lat="46.06757" lon="6.31394">
        <ele>536.07</ele>
        <time>2020-04-03T15:30:43Z</time>
      </trkpt>
      <trkpt lat="46.06755" lon="6.31389">
        <ele>536.55</ele>
        <time>2020-04-03T15:30:44Z</time>
      </trkpt>
      <trkpt lat="46.06752" lon="6.31382">
        <ele>537.03</ele>
        <time>2020-04-03T15:30:45Z</time>
      </trkpt>
      <trkpt lat="46.06752" lon="6.31373">
        <ele>537.51</ele>
        <time>2020-04-03T15:30:46Z</time>
      </trkpt>
      <trkpt lat="46.06751" lon="6.31362">
        <ele>537.99</ele>
        <time>2020-04-03T15:30:47Z</time>
      </trkpt>
      <trkpt lat="46.06751" lon="6.31349">
        <ele>538.48</ele>
        <time>2020-04-03T15:30:48Z</time>
      </trkpt>
      <trkpt lat="46.0675" lon="6.31336">
        <ele>538.96</ele>
        <time>2020-04-03T15:30:49Z</time>
      </trkpt>
      <trkpt lat="46.06748" lon="6.31326">
        <ele>539.44</ele>
        <time>2020-04-03T15:30:50Z</time>
      </trkpt>
      <trkpt lat="46.06745" lon="6.31318">
        <ele>539.92</ele>
        <time>2020-04-03T15:30:51Z</time>
      </trkpt>
      <trkpt lat="46.06743" lon="6.31311">
        <ele>540.4</ele>
        <time>2020-04-03T15:30:52Z</time>
      </trkpt>
      <trkpt lat="46.06741" lon="6.31304">
        <ele>540.88</ele>
        <time>2020-04-03T15:30:53Z</time>
      </trkpt>
      <trkpt lat="46.0674" lon="6.313">
        <ele>540.88</ele>
        <time>2020-04-03T15:30:54Z</time>
      </trkpt>
      <trkpt lat="46.06738" lon="6.31295">
        <ele>540.88</ele>
        <time>2020-04-03T15:30:55Z</time>
      </trkpt>
      <trkpt lat="46.06732" lon="6.3128">
        <ele>540.88</ele>
        <time>2020-04-03T15:30:58Z</time>
      </trkpt>
      <trkpt lat="46.0673" lon="6.31274">
        <ele>540.4</ele>
        <time>2020-04-03T15:30:59Z</time>
      </trkpt>
      <trkpt lat="46.06728" lon="6.3127">
        <ele>539.92</ele>
        <time>2020-04-03T15:31:00Z</time>
      </trkpt>
      <trkpt lat="46.06726" lon="6.31246">
        <ele>539.44</ele>
        <time>2020-04-03T15:31:01Z</time>
      </trkpt>
      <trkpt lat="46.06725" lon="6.31239">
        <ele>538.96</ele>
        <time>2020-04-03T15:31:02Z</time>
      </trkpt>
      <trkpt lat="46.06722" lon="6.31214">
        <ele>538.48</ele>
        <time>2020-04-03T15:31:04Z</time>
      </trkpt>
      <trkpt lat="46.06718" lon="6.31207">
        <ele>537.99</ele>
        <time>2020-04-03T15:31:05Z</time>
      </trkpt>
      <trkpt lat="46.06683" lon="6.31165">
        <ele>536.55</ele>
        <time>2020-04-03T15:31:11Z</time>
      </trkpt>
      <trkpt lat="46.06677" lon="6.31158">
        <ele>536.07</ele>
        <time>2020-04-03T15:31:12Z</time>
      </trkpt>
      <trkpt lat="46.06671" lon="6.31151">
        <ele>536.07</ele>
        <time>2020-04-03T15:31:13Z</time>
      </trkpt>
      <trkpt lat="46.06665" lon="6.31144">
        <ele>536.07</ele>
        <time>2020-04-03T15:31:14Z</time>
      </trkpt>
      <trkpt lat="46.06658" lon="6.3114">
        <ele>536.55</ele>
        <time>2020-04-03T15:31:15Z</time>
      </trkpt>
      <trkpt lat="46.06645" lon="6.31131">
        <ele>536.55</ele>
        <time>2020-04-03T15:31:17Z</time>
      </trkpt>
      <trkpt lat="46.06638" lon="6.31126">
        <ele>537.03</ele>
        <time>2020-04-03T15:31:18Z</time>
      </trkpt>
      <trkpt lat="46.06631" lon="6.31121">
        <ele>537.51</ele>
        <time>2020-04-03T15:31:19Z</time>
      </trkpt>
      <trkpt lat="46.06624" lon="6.31116">
        <ele>538.48</ele>
        <time>2020-04-03T15:31:20Z</time>
      </trkpt>
      <trkpt lat="46.06618" lon="6.31111">
        <ele>538.96</ele>
        <time>2020-04-03T15:31:21Z</time>
      </trkpt>
      <trkpt lat="46.06612" lon="6.31107">
        <ele>539.92</ele>
        <time>2020-04-03T15:31:22Z</time>
      </trkpt>
      <trkpt lat="46.06606" lon="6.31103">
        <ele>540.4</ele>
        <time>2020-04-03T15:31:23Z</time>
      </trkpt>
      <trkpt lat="46.06601" lon="6.311">
        <ele>541.36</ele>
        <time>2020-04-03T15:31:24Z</time>
      </trkpt>
      <trkpt lat="46.066" lon="6.31084">
        <ele>541.84</ele>
        <time>2020-04-03T15:31:25Z</time>
      </trkpt>
      <trkpt lat="46.06601" lon="6.31073">
        <ele>542.32</ele>
        <time>2020-04-03T15:31:26Z</time>
      </trkpt>
      <trkpt lat="46.06604" lon="6.31058">
        <ele>543.76</ele>
        <time>2020-04-03T15:31:27Z</time>
      </trkpt>
      <trkpt lat="46.06605" lon="6.31041">
        <ele>544.72</ele>
        <time>2020-04-03T15:31:28Z</time>
      </trkpt>
      <trkpt lat="46.0662" lon="6.30962">
        <ele>550.49</ele>
        <time>2020-04-03T15:31:34Z</time>
      </trkpt>
      <trkpt lat="46.06622" lon="6.30953">
        <ele>551.45</ele>
        <time>2020-04-03T15:31:35Z</time>
      </trkpt>
      <trkpt lat="46.0663" lon="6.30916">
        <ele>555.3</ele>
        <time>2020-04-03T15:31:38Z</time>
      </trkpt>
      <trkpt lat="46.06636" lon="6.30905">
        <ele>556.26</ele>
        <time>2020-04-03T15:31:39Z</time>
      </trkpt>
      <trkpt lat="46.06649" lon="6.30911">
        <ele>557.22</ele>
        <time>2020-04-03T15:31:40Z</time>
      </trkpt>
      <trkpt lat="46.06653" lon="6.3091">
        <ele>558.18</ele>
        <time>2020-04-03T15:31:41Z</time>
      </trkpt>
      <trkpt lat="46.06663" lon="6.30908">
        <ele>558.66</ele>
        <time>2020-04-03T15:31:42Z</time>
      </trkpt>
      <trkpt lat="46.06689" lon="6.30901">
        <ele>560.11</ele>
        <time>2020-04-03T15:31:45Z</time>
      </trkpt>
      <trkpt lat="46.06696" lon="6.30894">
        <ele>560.11</ele>
        <time>2020-04-03T15:31:46Z</time>
      </trkpt>
      <trkpt lat="46.06703" lon="6.30884">
        <ele>560.11</ele>
        <time>2020-04-03T15:31:47Z</time>
      </trkpt>
      <trkpt lat="46.0671" lon="6.30873">
        <ele>560.11</ele>
        <time>2020-04-03T15:31:48Z</time>
      </trkpt>
      <trkpt lat="46.06717" lon="6.30861">
        <ele>560.59</ele>
        <time>2020-04-03T15:31:49Z</time>
      </trkpt>
      <trkpt lat="46.06738" lon="6.30829">
        <ele>560.11</ele>
        <time>2020-04-03T15:31:52Z</time>
      </trkpt>
      <trkpt lat="46.06743" lon="6.30821">
        <ele>560.11</ele>
        <time>2020-04-03T15:31:53Z</time>
      </trkpt>
      <trkpt lat="46.06747" lon="6.30816">
        <ele>560.11</ele>
        <time>2020-04-03T15:31:54Z</time>
      </trkpt>
      <trkpt lat="46.06749" lon="6.30813">
        <ele>560.11</ele>
        <time>2020-04-03T15:31:55Z</time>
      </trkpt>
      <trkpt lat="46.06747" lon="6.30806">
        <ele>560.11</ele>
        <time>2020-04-03T15:32:04Z</time>
      </trkpt>
    </trkseg>
  </trk>
</gpx>